<?xml version="1.0" encoding="UTF-8" standalone="no" ?>
<gpx xmlns="http://www.topografix.com/GPX/1/1" xmlns:xsi="http://www.w3.org/2001/XMLSchema-instance" xsi:schemaLocation="http://www.topografix.com/GPX/1/1 http://www.topografix.com/GPX/1/1/gpx.xsd" version="1.1" creator="VisuGPX - https://www.visugpx.com">
  <metadata>
    <name>2020-08-30 Golinhac - Sénergues</name>
    <desc><![CDATA[13ème étape sur le chemin de Saint Jacques de Compostelle au départ du Puy en Velay]]></desc>
  </metadata>
  <trk>
    <name><![CDATA[2020-08-30 SANTIAGO E13]]></name>
    <trkseg>
      <trkpt lat="44.6048" lon="2.58358">
        <ele>680.27</ele>
        <time>2020-08-30T07:13:29Z</time>
      </trkpt>
      <trkpt lat="44.6048" lon="2.58358">
        <ele>680.27</ele>
        <time>2020-08-30T07:13:31Z</time>
      </trkpt>
      <trkpt lat="44.6048" lon="2.58358">
        <ele>680.27</ele>
        <time>2020-08-30T07:13:32Z</time>
      </trkpt>
      <trkpt lat="44.60479" lon="2.58358">
        <ele>681.23</ele>
        <time>2020-08-30T07:13:56Z</time>
      </trkpt>
      <trkpt lat="44.60479" lon="2.58358">
        <ele>679.79</ele>
        <time>2020-08-30T07:13:57Z</time>
      </trkpt>
      <trkpt lat="44.60479" lon="2.58356">
        <ele>679.31</ele>
        <time>2020-08-30T07:14:18Z</time>
      </trkpt>
      <trkpt lat="44.60479" lon="2.58353">
        <ele>678.83</ele>
        <time>2020-08-30T07:14:52Z</time>
      </trkpt>
      <trkpt lat="44.60479" lon="2.58342">
        <ele>678.83</ele>
        <time>2020-08-30T07:15:03Z</time>
      </trkpt>
      <trkpt lat="44.60475" lon="2.58326">
        <ele>678.35</ele>
        <time>2020-08-30T07:15:17Z</time>
      </trkpt>
      <trkpt lat="44.60475" lon="2.58319">
        <ele>679.79</ele>
        <time>2020-08-30T07:15:22Z</time>
      </trkpt>
      <trkpt lat="44.60475" lon="2.58305">
        <ele>680.27</ele>
        <time>2020-08-30T07:15:33Z</time>
      </trkpt>
      <trkpt lat="44.60483" lon="2.5829">
        <ele>680.75</ele>
        <time>2020-08-30T07:15:47Z</time>
      </trkpt>
      <trkpt lat="44.60484" lon="2.58278">
        <ele>681.23</ele>
        <time>2020-08-30T07:16:00Z</time>
      </trkpt>
      <trkpt lat="44.60478" lon="2.58285">
        <ele>682.67</ele>
        <time>2020-08-30T07:16:11Z</time>
      </trkpt>
      <trkpt lat="44.60474" lon="2.58291">
        <ele>683.63</ele>
        <time>2020-08-30T07:16:19Z</time>
      </trkpt>
      <trkpt lat="44.60468" lon="2.58297">
        <ele>685.08</ele>
        <time>2020-08-30T07:16:29Z</time>
      </trkpt>
      <trkpt lat="44.60461" lon="2.58291">
        <ele>686.04</ele>
        <time>2020-08-30T07:16:41Z</time>
      </trkpt>
      <trkpt lat="44.60461" lon="2.58286">
        <ele>686.04</ele>
        <time>2020-08-30T07:16:50Z</time>
      </trkpt>
      <trkpt lat="44.60458" lon="2.58271">
        <ele>686.04</ele>
        <time>2020-08-30T07:17:02Z</time>
      </trkpt>
      <trkpt lat="44.60452" lon="2.58261">
        <ele>686.52</ele>
        <time>2020-08-30T07:17:15Z</time>
      </trkpt>
      <trkpt lat="44.60446" lon="2.58252">
        <ele>688.44</ele>
        <time>2020-08-30T07:17:26Z</time>
      </trkpt>
      <trkpt lat="44.60441" lon="2.58243">
        <ele>689.4</ele>
        <time>2020-08-30T07:17:36Z</time>
      </trkpt>
      <trkpt lat="44.60436" lon="2.58235">
        <ele>690.84</ele>
        <time>2020-08-30T07:17:47Z</time>
      </trkpt>
      <trkpt lat="44.6043" lon="2.58227">
        <ele>691.33</ele>
        <time>2020-08-30T07:17:59Z</time>
      </trkpt>
      <trkpt lat="44.60424" lon="2.5822">
        <ele>692.29</ele>
        <time>2020-08-30T07:18:10Z</time>
      </trkpt>
      <trkpt lat="44.60421" lon="2.58215">
        <ele>692.77</ele>
        <time>2020-08-30T07:18:25Z</time>
      </trkpt>
      <trkpt lat="44.60418" lon="2.58212">
        <ele>693.25</ele>
        <time>2020-08-30T07:18:36Z</time>
      </trkpt>
      <trkpt lat="44.60417" lon="2.58206">
        <ele>694.21</ele>
        <time>2020-08-30T07:18:47Z</time>
      </trkpt>
      <trkpt lat="44.60412" lon="2.58198">
        <ele>695.17</ele>
        <time>2020-08-30T07:19:01Z</time>
      </trkpt>
      <trkpt lat="44.60408" lon="2.58187">
        <ele>696.61</ele>
        <time>2020-08-30T07:19:13Z</time>
      </trkpt>
      <trkpt lat="44.60405" lon="2.58178">
        <ele>698.05</ele>
        <time>2020-08-30T07:19:26Z</time>
      </trkpt>
      <trkpt lat="44.60401" lon="2.5817">
        <ele>699.02</ele>
        <time>2020-08-30T07:19:43Z</time>
      </trkpt>
      <trkpt lat="44.60398" lon="2.58161">
        <ele>700.94</ele>
        <time>2020-08-30T07:19:59Z</time>
      </trkpt>
      <trkpt lat="44.60395" lon="2.58151">
        <ele>701.9</ele>
        <time>2020-08-30T07:20:13Z</time>
      </trkpt>
      <trkpt lat="44.6039" lon="2.58138">
        <ele>703.82</ele>
        <time>2020-08-30T07:20:28Z</time>
      </trkpt>
      <trkpt lat="44.60385" lon="2.58128">
        <ele>704.3</ele>
        <time>2020-08-30T07:20:43Z</time>
      </trkpt>
      <trkpt lat="44.60381" lon="2.58117">
        <ele>705.75</ele>
        <time>2020-08-30T07:20:56Z</time>
      </trkpt>
      <trkpt lat="44.60378" lon="2.5811">
        <ele>706.23</ele>
        <time>2020-08-30T07:21:07Z</time>
      </trkpt>
      <trkpt lat="44.60373" lon="2.581">
        <ele>707.19</ele>
        <time>2020-08-30T07:21:19Z</time>
      </trkpt>
      <trkpt lat="44.6037" lon="2.58089">
        <ele>708.15</ele>
        <time>2020-08-30T07:21:30Z</time>
      </trkpt>
      <trkpt lat="44.60361" lon="2.5807">
        <ele>708.15</ele>
        <time>2020-08-30T07:21:46Z</time>
      </trkpt>
      <trkpt lat="44.6036" lon="2.58065">
        <ele>707.67</ele>
        <time>2020-08-30T07:22:03Z</time>
      </trkpt>
      <trkpt lat="44.6036" lon="2.58063">
        <ele>707.19</ele>
        <time>2020-08-30T07:22:33Z</time>
      </trkpt>
      <trkpt lat="44.60358" lon="2.58062">
        <ele>706.71</ele>
        <time>2020-08-30T07:23:06Z</time>
      </trkpt>
      <trkpt lat="44.60357" lon="2.58058">
        <ele>706.23</ele>
        <time>2020-08-30T07:23:24Z</time>
      </trkpt>
      <trkpt lat="44.60359" lon="2.58052">
        <ele>705.75</ele>
        <time>2020-08-30T07:23:53Z</time>
      </trkpt>
      <trkpt lat="44.60357" lon="2.58061">
        <ele>705.75</ele>
        <time>2020-08-30T07:24:19Z</time>
      </trkpt>
      <trkpt lat="44.60358" lon="2.58052">
        <ele>705.75</ele>
        <time>2020-08-30T07:24:40Z</time>
      </trkpt>
      <trkpt lat="44.60361" lon="2.58037">
        <ele>705.26</ele>
        <time>2020-08-30T07:24:58Z</time>
      </trkpt>
      <trkpt lat="44.60361" lon="2.58034">
        <ele>703.82</ele>
        <time>2020-08-30T07:25:00Z</time>
      </trkpt>
      <trkpt lat="44.60363" lon="2.58008">
        <ele>703.82</ele>
        <time>2020-08-30T07:25:21Z</time>
      </trkpt>
      <trkpt lat="44.60363" lon="2.57985">
        <ele>702.86</ele>
        <time>2020-08-30T07:25:39Z</time>
      </trkpt>
      <trkpt lat="44.60363" lon="2.57981">
        <ele>702.86</ele>
        <time>2020-08-30T07:25:42Z</time>
      </trkpt>
      <trkpt lat="44.60366" lon="2.57957">
        <ele>702.38</ele>
        <time>2020-08-30T07:26:01Z</time>
      </trkpt>
      <trkpt lat="44.6037" lon="2.57932">
        <ele>700.94</ele>
        <time>2020-08-30T07:26:20Z</time>
      </trkpt>
      <trkpt lat="44.60371" lon="2.57915">
        <ele>700.94</ele>
        <time>2020-08-30T07:26:36Z</time>
      </trkpt>
      <trkpt lat="44.60373" lon="2.57896">
        <ele>699.98</ele>
        <time>2020-08-30T07:26:52Z</time>
      </trkpt>
      <trkpt lat="44.60375" lon="2.5787">
        <ele>699.5</ele>
        <time>2020-08-30T07:27:10Z</time>
      </trkpt>
      <trkpt lat="44.60377" lon="2.57845">
        <ele>699.02</ele>
        <time>2020-08-30T07:27:27Z</time>
      </trkpt>
      <trkpt lat="44.60376" lon="2.57823">
        <ele>699.02</ele>
        <time>2020-08-30T07:27:44Z</time>
      </trkpt>
      <trkpt lat="44.60377" lon="2.578">
        <ele>698.53</ele>
        <time>2020-08-30T07:27:59Z</time>
      </trkpt>
      <trkpt lat="44.60376" lon="2.57777">
        <ele>698.05</ele>
        <time>2020-08-30T07:28:14Z</time>
      </trkpt>
      <trkpt lat="44.60377" lon="2.57758">
        <ele>697.09</ele>
        <time>2020-08-30T07:28:29Z</time>
      </trkpt>
      <trkpt lat="44.60379" lon="2.57738">
        <ele>696.13</ele>
        <time>2020-08-30T07:28:44Z</time>
      </trkpt>
      <trkpt lat="44.6038" lon="2.57728">
        <ele>695.65</ele>
        <time>2020-08-30T07:29:02Z</time>
      </trkpt>
      <trkpt lat="44.6038" lon="2.57711">
        <ele>695.17</ele>
        <time>2020-08-30T07:29:17Z</time>
      </trkpt>
      <trkpt lat="44.60382" lon="2.57691">
        <ele>694.21</ele>
        <time>2020-08-30T07:29:32Z</time>
      </trkpt>
      <trkpt lat="44.60382" lon="2.57668">
        <ele>694.21</ele>
        <time>2020-08-30T07:29:49Z</time>
      </trkpt>
      <trkpt lat="44.60385" lon="2.57641">
        <ele>693.25</ele>
        <time>2020-08-30T07:30:06Z</time>
      </trkpt>
      <trkpt lat="44.60385" lon="2.57616">
        <ele>693.25</ele>
        <time>2020-08-30T07:30:23Z</time>
      </trkpt>
      <trkpt lat="44.60387" lon="2.57595">
        <ele>692.29</ele>
        <time>2020-08-30T07:30:38Z</time>
      </trkpt>
      <trkpt lat="44.60386" lon="2.57577">
        <ele>692.29</ele>
        <time>2020-08-30T07:30:52Z</time>
      </trkpt>
      <trkpt lat="44.60385" lon="2.5755">
        <ele>692.29</ele>
        <time>2020-08-30T07:31:10Z</time>
      </trkpt>
      <trkpt lat="44.60383" lon="2.57533">
        <ele>691.81</ele>
        <time>2020-08-30T07:31:26Z</time>
      </trkpt>
      <trkpt lat="44.60381" lon="2.57522">
        <ele>691.81</ele>
        <time>2020-08-30T07:31:40Z</time>
      </trkpt>
      <trkpt lat="44.60377" lon="2.57499">
        <ele>692.77</ele>
        <time>2020-08-30T07:31:57Z</time>
      </trkpt>
      <trkpt lat="44.60377" lon="2.57477">
        <ele>693.25</ele>
        <time>2020-08-30T07:32:15Z</time>
      </trkpt>
      <trkpt lat="44.60377" lon="2.57472">
        <ele>692.77</ele>
        <time>2020-08-30T07:32:19Z</time>
      </trkpt>
      <trkpt lat="44.60377" lon="2.57465">
        <ele>693.25</ele>
        <time>2020-08-30T07:32:24Z</time>
      </trkpt>
      <trkpt lat="44.60377" lon="2.57459">
        <ele>693.25</ele>
        <time>2020-08-30T07:32:28Z</time>
      </trkpt>
      <trkpt lat="44.60375" lon="2.57442">
        <ele>693.73</ele>
        <time>2020-08-30T07:32:39Z</time>
      </trkpt>
      <trkpt lat="44.60374" lon="2.57423">
        <ele>693.25</ele>
        <time>2020-08-30T07:32:55Z</time>
      </trkpt>
      <trkpt lat="44.60372" lon="2.57403">
        <ele>691.33</ele>
        <time>2020-08-30T07:33:11Z</time>
      </trkpt>
      <trkpt lat="44.60371" lon="2.5738">
        <ele>690.84</ele>
        <time>2020-08-30T07:33:26Z</time>
      </trkpt>
      <trkpt lat="44.6037" lon="2.57362">
        <ele>688.92</ele>
        <time>2020-08-30T07:33:38Z</time>
      </trkpt>
      <trkpt lat="44.60372" lon="2.57341">
        <ele>687.96</ele>
        <time>2020-08-30T07:33:54Z</time>
      </trkpt>
      <trkpt lat="44.60373" lon="2.57315">
        <ele>687.48</ele>
        <time>2020-08-30T07:34:10Z</time>
      </trkpt>
      <trkpt lat="44.60375" lon="2.57297">
        <ele>686.04</ele>
        <time>2020-08-30T07:34:24Z</time>
      </trkpt>
      <trkpt lat="44.60375" lon="2.57274">
        <ele>685.08</ele>
        <time>2020-08-30T07:34:38Z</time>
      </trkpt>
      <trkpt lat="44.60378" lon="2.57254">
        <ele>684.6</ele>
        <time>2020-08-30T07:34:52Z</time>
      </trkpt>
      <trkpt lat="44.60378" lon="2.57239">
        <ele>684.12</ele>
        <time>2020-08-30T07:35:10Z</time>
      </trkpt>
      <trkpt lat="44.60379" lon="2.57239">
        <ele>684.12</ele>
        <time>2020-08-30T07:35:27Z</time>
      </trkpt>
      <trkpt lat="44.60382" lon="2.57224">
        <ele>683.15</ele>
        <time>2020-08-30T07:35:51Z</time>
      </trkpt>
      <trkpt lat="44.60384" lon="2.57198">
        <ele>681.71</ele>
        <time>2020-08-30T07:36:08Z</time>
      </trkpt>
      <trkpt lat="44.60393" lon="2.57182">
        <ele>679.31</ele>
        <time>2020-08-30T07:36:25Z</time>
      </trkpt>
      <trkpt lat="44.60399" lon="2.57157">
        <ele>677.39</ele>
        <time>2020-08-30T07:36:45Z</time>
      </trkpt>
      <trkpt lat="44.60398" lon="2.57154">
        <ele>676.91</ele>
        <time>2020-08-30T07:36:48Z</time>
      </trkpt>
      <trkpt lat="44.60388" lon="2.57132">
        <ele>674.5</ele>
        <time>2020-08-30T07:37:06Z</time>
      </trkpt>
      <trkpt lat="44.60373" lon="2.57112">
        <ele>672.1</ele>
        <time>2020-08-30T07:37:27Z</time>
      </trkpt>
      <trkpt lat="44.60367" lon="2.57111">
        <ele>670.66</ele>
        <time>2020-08-30T07:37:42Z</time>
      </trkpt>
      <trkpt lat="44.60356" lon="2.57094">
        <ele>669.22</ele>
        <time>2020-08-30T07:37:57Z</time>
      </trkpt>
      <trkpt lat="44.60341" lon="2.57077">
        <ele>665.85</ele>
        <time>2020-08-30T07:38:16Z</time>
      </trkpt>
      <trkpt lat="44.60333" lon="2.57065">
        <ele>664.89</ele>
        <time>2020-08-30T07:38:32Z</time>
      </trkpt>
      <trkpt lat="44.60332" lon="2.57056">
        <ele>663.45</ele>
        <time>2020-08-30T07:38:40Z</time>
      </trkpt>
      <trkpt lat="44.60327" lon="2.57028">
        <ele>660.56</ele>
        <time>2020-08-30T07:39:02Z</time>
      </trkpt>
      <trkpt lat="44.60329" lon="2.57006">
        <ele>658.64</ele>
        <time>2020-08-30T07:39:19Z</time>
      </trkpt>
      <trkpt lat="44.60329" lon="2.56973">
        <ele>656.72</ele>
        <time>2020-08-30T07:39:42Z</time>
      </trkpt>
      <trkpt lat="44.60332" lon="2.56945">
        <ele>655.28</ele>
        <time>2020-08-30T07:40:01Z</time>
      </trkpt>
      <trkpt lat="44.60333" lon="2.56924">
        <ele>655.28</ele>
        <time>2020-08-30T07:40:19Z</time>
      </trkpt>
      <trkpt lat="44.60331" lon="2.56922">
        <ele>654.8</ele>
        <time>2020-08-30T07:40:37Z</time>
      </trkpt>
      <trkpt lat="44.60336" lon="2.56923">
        <ele>654.8</ele>
        <time>2020-08-30T07:40:55Z</time>
      </trkpt>
      <trkpt lat="44.60339" lon="2.56908">
        <ele>654.8</ele>
        <time>2020-08-30T07:41:10Z</time>
      </trkpt>
      <trkpt lat="44.60348" lon="2.56888">
        <ele>656.24</ele>
        <time>2020-08-30T07:41:29Z</time>
      </trkpt>
      <trkpt lat="44.60356" lon="2.56862">
        <ele>655.76</ele>
        <time>2020-08-30T07:41:49Z</time>
      </trkpt>
      <trkpt lat="44.60361" lon="2.56845">
        <ele>656.24</ele>
        <time>2020-08-30T07:42:03Z</time>
      </trkpt>
      <trkpt lat="44.60361" lon="2.56844">
        <ele>656.24</ele>
        <time>2020-08-30T07:42:04Z</time>
      </trkpt>
      <trkpt lat="44.60362" lon="2.56835">
        <ele>656.24</ele>
        <time>2020-08-30T07:42:20Z</time>
      </trkpt>
      <trkpt lat="44.60368" lon="2.56815">
        <ele>654.8</ele>
        <time>2020-08-30T07:42:40Z</time>
      </trkpt>
      <trkpt lat="44.6037" lon="2.56795">
        <ele>654.8</ele>
        <time>2020-08-30T07:42:59Z</time>
      </trkpt>
      <trkpt lat="44.60372" lon="2.56771">
        <ele>653.83</ele>
        <time>2020-08-30T07:43:21Z</time>
      </trkpt>
      <trkpt lat="44.60374" lon="2.56748">
        <ele>653.35</ele>
        <time>2020-08-30T07:43:41Z</time>
      </trkpt>
      <trkpt lat="44.60372" lon="2.56734">
        <ele>652.87</ele>
        <time>2020-08-30T07:44:00Z</time>
      </trkpt>
      <trkpt lat="44.60371" lon="2.56739">
        <ele>652.87</ele>
        <time>2020-08-30T07:44:23Z</time>
      </trkpt>
      <trkpt lat="44.60372" lon="2.56741">
        <ele>651.91</ele>
        <time>2020-08-30T07:44:57Z</time>
      </trkpt>
      <trkpt lat="44.60371" lon="2.56723">
        <ele>651.91</ele>
        <time>2020-08-30T07:45:19Z</time>
      </trkpt>
      <trkpt lat="44.60369" lon="2.56693">
        <ele>651.43</ele>
        <time>2020-08-30T07:45:40Z</time>
      </trkpt>
      <trkpt lat="44.60366" lon="2.56658">
        <ele>650.47</ele>
        <time>2020-08-30T07:46:04Z</time>
      </trkpt>
      <trkpt lat="44.60365" lon="2.56626">
        <ele>649.99</ele>
        <time>2020-08-30T07:46:26Z</time>
      </trkpt>
      <trkpt lat="44.60362" lon="2.56596">
        <ele>649.99</ele>
        <time>2020-08-30T07:46:46Z</time>
      </trkpt>
      <trkpt lat="44.6036" lon="2.56562">
        <ele>649.51</ele>
        <time>2020-08-30T07:47:08Z</time>
      </trkpt>
      <trkpt lat="44.6036" lon="2.56525">
        <ele>649.03</ele>
        <time>2020-08-30T07:47:33Z</time>
      </trkpt>
      <trkpt lat="44.60364" lon="2.56487">
        <ele>648.55</ele>
        <time>2020-08-30T07:47:57Z</time>
      </trkpt>
      <trkpt lat="44.60372" lon="2.56454">
        <ele>647.1</ele>
        <time>2020-08-30T07:48:20Z</time>
      </trkpt>
      <trkpt lat="44.60383" lon="2.56425">
        <ele>646.62</ele>
        <time>2020-08-30T07:48:42Z</time>
      </trkpt>
      <trkpt lat="44.60396" lon="2.56391">
        <ele>646.14</ele>
        <time>2020-08-30T07:49:08Z</time>
      </trkpt>
      <trkpt lat="44.60411" lon="2.56372">
        <ele>646.14</ele>
        <time>2020-08-30T07:49:26Z</time>
      </trkpt>
      <trkpt lat="44.60412" lon="2.56369">
        <ele>646.14</ele>
        <time>2020-08-30T07:49:28Z</time>
      </trkpt>
      <trkpt lat="44.60415" lon="2.56364">
        <ele>646.14</ele>
        <time>2020-08-30T07:49:31Z</time>
      </trkpt>
      <trkpt lat="44.60419" lon="2.56351">
        <ele>645.66</ele>
        <time>2020-08-30T07:49:40Z</time>
      </trkpt>
      <trkpt lat="44.60421" lon="2.56348">
        <ele>645.66</ele>
        <time>2020-08-30T07:49:43Z</time>
      </trkpt>
      <trkpt lat="44.60431" lon="2.56334">
        <ele>645.66</ele>
        <time>2020-08-30T07:49:56Z</time>
      </trkpt>
      <trkpt lat="44.60437" lon="2.56317">
        <ele>645.66</ele>
        <time>2020-08-30T07:50:09Z</time>
      </trkpt>
      <trkpt lat="44.60444" lon="2.56301">
        <ele>646.62</ele>
        <time>2020-08-30T07:50:22Z</time>
      </trkpt>
      <trkpt lat="44.60443" lon="2.56282">
        <ele>647.1</ele>
        <time>2020-08-30T07:50:35Z</time>
      </trkpt>
      <trkpt lat="44.6044" lon="2.56263">
        <ele>647.59</ele>
        <time>2020-08-30T07:50:48Z</time>
      </trkpt>
      <trkpt lat="44.60448" lon="2.5624">
        <ele>648.55</ele>
        <time>2020-08-30T07:51:05Z</time>
      </trkpt>
      <trkpt lat="44.60456" lon="2.56223">
        <ele>649.99</ele>
        <time>2020-08-30T07:51:21Z</time>
      </trkpt>
      <trkpt lat="44.60459" lon="2.56207">
        <ele>651.91</ele>
        <time>2020-08-30T07:51:37Z</time>
      </trkpt>
      <trkpt lat="44.60464" lon="2.5619">
        <ele>654.31</ele>
        <time>2020-08-30T07:51:57Z</time>
      </trkpt>
      <trkpt lat="44.60471" lon="2.56176">
        <ele>655.28</ele>
        <time>2020-08-30T07:52:14Z</time>
      </trkpt>
      <trkpt lat="44.60474" lon="2.56159">
        <ele>657.2</ele>
        <time>2020-08-30T07:52:30Z</time>
      </trkpt>
      <trkpt lat="44.60485" lon="2.56146">
        <ele>658.16</ele>
        <time>2020-08-30T07:52:48Z</time>
      </trkpt>
      <trkpt lat="44.60499" lon="2.56133">
        <ele>658.64</ele>
        <time>2020-08-30T07:53:06Z</time>
      </trkpt>
      <trkpt lat="44.60507" lon="2.56124">
        <ele>659.6</ele>
        <time>2020-08-30T07:53:22Z</time>
      </trkpt>
      <trkpt lat="44.60514" lon="2.561">
        <ele>660.08</ele>
        <time>2020-08-30T07:53:38Z</time>
      </trkpt>
      <trkpt lat="44.60518" lon="2.56081">
        <ele>661.04</ele>
        <time>2020-08-30T07:53:52Z</time>
      </trkpt>
      <trkpt lat="44.6052" lon="2.56062">
        <ele>661.04</ele>
        <time>2020-08-30T07:54:07Z</time>
      </trkpt>
      <trkpt lat="44.60522" lon="2.56044">
        <ele>661.04</ele>
        <time>2020-08-30T07:54:19Z</time>
      </trkpt>
      <trkpt lat="44.60523" lon="2.56025">
        <ele>661.04</ele>
        <time>2020-08-30T07:54:33Z</time>
      </trkpt>
      <trkpt lat="44.60523" lon="2.56004">
        <ele>661.52</ele>
        <time>2020-08-30T07:54:48Z</time>
      </trkpt>
      <trkpt lat="44.60523" lon="2.55982">
        <ele>662.49</ele>
        <time>2020-08-30T07:55:04Z</time>
      </trkpt>
      <trkpt lat="44.60525" lon="2.55957">
        <ele>662.49</ele>
        <time>2020-08-30T07:55:20Z</time>
      </trkpt>
      <trkpt lat="44.6053" lon="2.55941">
        <ele>662.01</ele>
        <time>2020-08-30T07:55:34Z</time>
      </trkpt>
      <trkpt lat="44.60535" lon="2.55922">
        <ele>662.49</ele>
        <time>2020-08-30T07:55:49Z</time>
      </trkpt>
      <trkpt lat="44.60534" lon="2.55907">
        <ele>661.52</ele>
        <time>2020-08-30T07:56:00Z</time>
      </trkpt>
      <trkpt lat="44.60532" lon="2.55898">
        <ele>661.04</ele>
        <time>2020-08-30T07:56:07Z</time>
      </trkpt>
      <trkpt lat="44.60524" lon="2.55879">
        <ele>659.12</ele>
        <time>2020-08-30T07:56:23Z</time>
      </trkpt>
      <trkpt lat="44.60516" lon="2.55854">
        <ele>657.68</ele>
        <time>2020-08-30T07:56:42Z</time>
      </trkpt>
      <trkpt lat="44.60506" lon="2.55829">
        <ele>655.76</ele>
        <time>2020-08-30T07:57:00Z</time>
      </trkpt>
      <trkpt lat="44.60507" lon="2.55806">
        <ele>653.83</ele>
        <time>2020-08-30T07:57:18Z</time>
      </trkpt>
      <trkpt lat="44.60523" lon="2.5579">
        <ele>652.87</ele>
        <time>2020-08-30T07:57:36Z</time>
      </trkpt>
      <trkpt lat="44.60529" lon="2.55784">
        <ele>652.87</ele>
        <time>2020-08-30T07:57:53Z</time>
      </trkpt>
      <trkpt lat="44.60532" lon="2.55781">
        <ele>652.87</ele>
        <time>2020-08-30T07:58:20Z</time>
      </trkpt>
      <trkpt lat="44.60535" lon="2.55785">
        <ele>652.87</ele>
        <time>2020-08-30T07:58:54Z</time>
      </trkpt>
      <trkpt lat="44.60538" lon="2.55787">
        <ele>652.87</ele>
        <time>2020-08-30T07:59:22Z</time>
      </trkpt>
      <trkpt lat="44.60537" lon="2.55789">
        <ele>652.87</ele>
        <time>2020-08-30T07:59:39Z</time>
      </trkpt>
      <trkpt lat="44.60543" lon="2.55792">
        <ele>652.87</ele>
        <time>2020-08-30T08:00:14Z</time>
      </trkpt>
      <trkpt lat="44.60545" lon="2.55794">
        <ele>652.87</ele>
        <time>2020-08-30T08:00:38Z</time>
      </trkpt>
      <trkpt lat="44.60537" lon="2.55798">
        <ele>653.35</ele>
        <time>2020-08-30T08:01:05Z</time>
      </trkpt>
      <trkpt lat="44.60534" lon="2.55791">
        <ele>653.35</ele>
        <time>2020-08-30T08:01:20Z</time>
      </trkpt>
      <trkpt lat="44.60529" lon="2.55796">
        <ele>653.35</ele>
        <time>2020-08-30T08:01:33Z</time>
      </trkpt>
      <trkpt lat="44.6053" lon="2.55791">
        <ele>653.35</ele>
        <time>2020-08-30T08:01:47Z</time>
      </trkpt>
      <trkpt lat="44.6053" lon="2.55793">
        <ele>653.35</ele>
        <time>2020-08-30T08:02:03Z</time>
      </trkpt>
      <trkpt lat="44.60537" lon="2.55789">
        <ele>652.87</ele>
        <time>2020-08-30T08:02:19Z</time>
      </trkpt>
      <trkpt lat="44.60554" lon="2.5578">
        <ele>652.87</ele>
        <time>2020-08-30T08:02:37Z</time>
      </trkpt>
      <trkpt lat="44.60568" lon="2.5577">
        <ele>652.87</ele>
        <time>2020-08-30T08:02:56Z</time>
      </trkpt>
      <trkpt lat="44.60581" lon="2.55761">
        <ele>652.87</ele>
        <time>2020-08-30T08:03:11Z</time>
      </trkpt>
      <trkpt lat="44.60581" lon="2.55764">
        <ele>652.39</ele>
        <time>2020-08-30T08:03:38Z</time>
      </trkpt>
      <trkpt lat="44.60579" lon="2.55751">
        <ele>650.95</ele>
        <time>2020-08-30T08:03:55Z</time>
      </trkpt>
      <trkpt lat="44.60575" lon="2.55737">
        <ele>649.99</ele>
        <time>2020-08-30T08:04:07Z</time>
      </trkpt>
      <trkpt lat="44.60577" lon="2.55726">
        <ele>647.59</ele>
        <time>2020-08-30T08:04:22Z</time>
      </trkpt>
      <trkpt lat="44.60576" lon="2.55714">
        <ele>646.62</ele>
        <time>2020-08-30T08:04:33Z</time>
      </trkpt>
      <trkpt lat="44.60582" lon="2.55694">
        <ele>644.22</ele>
        <time>2020-08-30T08:04:50Z</time>
      </trkpt>
      <trkpt lat="44.60576" lon="2.55684">
        <ele>642.3</ele>
        <time>2020-08-30T08:05:06Z</time>
      </trkpt>
      <trkpt lat="44.60555" lon="2.55677">
        <ele>640.38</ele>
        <time>2020-08-30T08:05:26Z</time>
      </trkpt>
      <trkpt lat="44.60549" lon="2.5567">
        <ele>639.89</ele>
        <time>2020-08-30T08:05:33Z</time>
      </trkpt>
      <trkpt lat="44.60543" lon="2.55642">
        <ele>637.97</ele>
        <time>2020-08-30T08:05:51Z</time>
      </trkpt>
      <trkpt lat="44.60542" lon="2.55641">
        <ele>637.97</ele>
        <time>2020-08-30T08:06:06Z</time>
      </trkpt>
      <trkpt lat="44.6054" lon="2.55633">
        <ele>637.49</ele>
        <time>2020-08-30T08:06:26Z</time>
      </trkpt>
      <trkpt lat="44.60535" lon="2.55614">
        <ele>636.53</ele>
        <time>2020-08-30T08:06:41Z</time>
      </trkpt>
      <trkpt lat="44.60535" lon="2.55597">
        <ele>635.09</ele>
        <time>2020-08-30T08:06:55Z</time>
      </trkpt>
      <trkpt lat="44.60534" lon="2.55597">
        <ele>635.09</ele>
        <time>2020-08-30T08:07:24Z</time>
      </trkpt>
      <trkpt lat="44.60531" lon="2.55593">
        <ele>634.13</ele>
        <time>2020-08-30T08:07:46Z</time>
      </trkpt>
      <trkpt lat="44.60528" lon="2.55576">
        <ele>631.24</ele>
        <time>2020-08-30T08:08:01Z</time>
      </trkpt>
      <trkpt lat="44.60524" lon="2.5556">
        <ele>629.32</ele>
        <time>2020-08-30T08:08:16Z</time>
      </trkpt>
      <trkpt lat="44.6052" lon="2.55542">
        <ele>626.92</ele>
        <time>2020-08-30T08:08:31Z</time>
      </trkpt>
      <trkpt lat="44.60516" lon="2.55528">
        <ele>625.96</ele>
        <time>2020-08-30T08:08:42Z</time>
      </trkpt>
      <trkpt lat="44.60514" lon="2.55511">
        <ele>624.51</ele>
        <time>2020-08-30T08:08:55Z</time>
      </trkpt>
      <trkpt lat="44.60512" lon="2.55495">
        <ele>623.07</ele>
        <time>2020-08-30T08:09:08Z</time>
      </trkpt>
      <trkpt lat="44.6051" lon="2.55487">
        <ele>622.59</ele>
        <time>2020-08-30T08:09:13Z</time>
      </trkpt>
      <trkpt lat="44.60507" lon="2.55464">
        <ele>620.67</ele>
        <time>2020-08-30T08:09:30Z</time>
      </trkpt>
      <trkpt lat="44.60501" lon="2.55445">
        <ele>619.23</ele>
        <time>2020-08-30T08:09:47Z</time>
      </trkpt>
      <trkpt lat="44.60498" lon="2.55439">
        <ele>619.23</ele>
        <time>2020-08-30T08:10:18Z</time>
      </trkpt>
      <trkpt lat="44.60495" lon="2.55431">
        <ele>618.26</ele>
        <time>2020-08-30T08:10:45Z</time>
      </trkpt>
      <trkpt lat="44.6049" lon="2.5542">
        <ele>616.82</ele>
        <time>2020-08-30T08:10:59Z</time>
      </trkpt>
      <trkpt lat="44.60485" lon="2.55403">
        <ele>614.9</ele>
        <time>2020-08-30T08:11:15Z</time>
      </trkpt>
      <trkpt lat="44.6048" lon="2.55382">
        <ele>613.94</ele>
        <time>2020-08-30T08:11:30Z</time>
      </trkpt>
      <trkpt lat="44.60475" lon="2.55361">
        <ele>612.02</ele>
        <time>2020-08-30T08:11:46Z</time>
      </trkpt>
      <trkpt lat="44.60471" lon="2.55345">
        <ele>611.06</ele>
        <time>2020-08-30T08:12:00Z</time>
      </trkpt>
      <trkpt lat="44.60461" lon="2.55329">
        <ele>610.57</ele>
        <time>2020-08-30T08:12:13Z</time>
      </trkpt>
      <trkpt lat="44.60459" lon="2.55325">
        <ele>610.09</ele>
        <time>2020-08-30T08:12:16Z</time>
      </trkpt>
      <trkpt lat="44.60442" lon="2.55306">
        <ele>609.13</ele>
        <time>2020-08-30T08:12:34Z</time>
      </trkpt>
      <trkpt lat="44.60431" lon="2.55294">
        <ele>608.65</ele>
        <time>2020-08-30T08:12:47Z</time>
      </trkpt>
      <trkpt lat="44.60422" lon="2.55283">
        <ele>608.17</ele>
        <time>2020-08-30T08:13:03Z</time>
      </trkpt>
      <trkpt lat="44.60412" lon="2.55278">
        <ele>607.69</ele>
        <time>2020-08-30T08:13:20Z</time>
      </trkpt>
      <trkpt lat="44.6041" lon="2.55271">
        <ele>607.21</ele>
        <time>2020-08-30T08:13:52Z</time>
      </trkpt>
      <trkpt lat="44.60408" lon="2.55268">
        <ele>606.73</ele>
        <time>2020-08-30T08:14:25Z</time>
      </trkpt>
      <trkpt lat="44.60407" lon="2.55264">
        <ele>606.73</ele>
        <time>2020-08-30T08:14:40Z</time>
      </trkpt>
      <trkpt lat="44.60409" lon="2.55253">
        <ele>606.73</ele>
        <time>2020-08-30T08:15:03Z</time>
      </trkpt>
      <trkpt lat="44.6041" lon="2.55231">
        <ele>608.17</ele>
        <time>2020-08-30T08:15:20Z</time>
      </trkpt>
      <trkpt lat="44.60413" lon="2.55223">
        <ele>609.13</ele>
        <time>2020-08-30T08:15:35Z</time>
      </trkpt>
      <trkpt lat="44.60417" lon="2.5521">
        <ele>609.13</ele>
        <time>2020-08-30T08:15:56Z</time>
      </trkpt>
      <trkpt lat="44.6042" lon="2.55208">
        <ele>607.69</ele>
        <time>2020-08-30T08:16:01Z</time>
      </trkpt>
      <trkpt lat="44.60432" lon="2.55188">
        <ele>607.69</ele>
        <time>2020-08-30T08:16:20Z</time>
      </trkpt>
      <trkpt lat="44.60436" lon="2.55163">
        <ele>608.65</ele>
        <time>2020-08-30T08:16:41Z</time>
      </trkpt>
      <trkpt lat="44.60436" lon="2.55135">
        <ele>608.65</ele>
        <time>2020-08-30T08:17:04Z</time>
      </trkpt>
      <trkpt lat="44.60437" lon="2.55111">
        <ele>608.65</ele>
        <time>2020-08-30T08:17:24Z</time>
      </trkpt>
      <trkpt lat="44.60439" lon="2.55086">
        <ele>609.61</ele>
        <time>2020-08-30T08:17:41Z</time>
      </trkpt>
      <trkpt lat="44.60442" lon="2.55061">
        <ele>607.21</ele>
        <time>2020-08-30T08:18:00Z</time>
      </trkpt>
      <trkpt lat="44.60443" lon="2.55055">
        <ele>605.77</ele>
        <time>2020-08-30T08:18:11Z</time>
      </trkpt>
      <trkpt lat="44.60438" lon="2.55039">
        <ele>605.77</ele>
        <time>2020-08-30T08:18:28Z</time>
      </trkpt>
      <trkpt lat="44.60431" lon="2.55023">
        <ele>604.33</ele>
        <time>2020-08-30T08:18:45Z</time>
      </trkpt>
      <trkpt lat="44.60418" lon="2.55007">
        <ele>603.36</ele>
        <time>2020-08-30T08:19:01Z</time>
      </trkpt>
      <trkpt lat="44.60398" lon="2.54991">
        <ele>602.88</ele>
        <time>2020-08-30T08:19:18Z</time>
      </trkpt>
      <trkpt lat="44.60389" lon="2.54986">
        <ele>602.4</ele>
        <time>2020-08-30T08:19:33Z</time>
      </trkpt>
      <trkpt lat="44.60376" lon="2.54982">
        <ele>602.4</ele>
        <time>2020-08-30T08:19:47Z</time>
      </trkpt>
      <trkpt lat="44.60359" lon="2.54974">
        <ele>602.4</ele>
        <time>2020-08-30T08:20:02Z</time>
      </trkpt>
      <trkpt lat="44.60347" lon="2.54967">
        <ele>601.44</ele>
        <time>2020-08-30T08:20:18Z</time>
      </trkpt>
      <trkpt lat="44.60341" lon="2.54956">
        <ele>600.48</ele>
        <time>2020-08-30T08:20:32Z</time>
      </trkpt>
      <trkpt lat="44.60336" lon="2.54931">
        <ele>599.04</ele>
        <time>2020-08-30T08:20:46Z</time>
      </trkpt>
      <trkpt lat="44.60333" lon="2.54906">
        <ele>598.56</ele>
        <time>2020-08-30T08:21:02Z</time>
      </trkpt>
      <trkpt lat="44.60328" lon="2.5487">
        <ele>598.56</ele>
        <time>2020-08-30T08:21:18Z</time>
      </trkpt>
      <trkpt lat="44.60324" lon="2.54848">
        <ele>598.08</ele>
        <time>2020-08-30T08:21:32Z</time>
      </trkpt>
      <trkpt lat="44.60322" lon="2.54838">
        <ele>597.12</ele>
        <time>2020-08-30T08:21:41Z</time>
      </trkpt>
      <trkpt lat="44.60319" lon="2.54828">
        <ele>597.12</ele>
        <time>2020-08-30T08:21:47Z</time>
      </trkpt>
      <trkpt lat="44.60312" lon="2.5481">
        <ele>597.12</ele>
        <time>2020-08-30T08:21:58Z</time>
      </trkpt>
      <trkpt lat="44.60311" lon="2.54805">
        <ele>597.12</ele>
        <time>2020-08-30T08:22:02Z</time>
      </trkpt>
      <trkpt lat="44.60303" lon="2.54778">
        <ele>597.12</ele>
        <time>2020-08-30T08:22:20Z</time>
      </trkpt>
      <trkpt lat="44.60297" lon="2.54757">
        <ele>597.12</ele>
        <time>2020-08-30T08:22:36Z</time>
      </trkpt>
      <trkpt lat="44.60289" lon="2.54734">
        <ele>597.12</ele>
        <time>2020-08-30T08:22:53Z</time>
      </trkpt>
      <trkpt lat="44.60279" lon="2.5471">
        <ele>598.08</ele>
        <time>2020-08-30T08:23:10Z</time>
      </trkpt>
      <trkpt lat="44.60281" lon="2.54694">
        <ele>597.12</ele>
        <time>2020-08-30T08:23:23Z</time>
      </trkpt>
      <trkpt lat="44.60281" lon="2.54693">
        <ele>597.12</ele>
        <time>2020-08-30T08:23:24Z</time>
      </trkpt>
      <trkpt lat="44.60273" lon="2.54672">
        <ele>595.19</ele>
        <time>2020-08-30T08:23:40Z</time>
      </trkpt>
      <trkpt lat="44.60265" lon="2.5466">
        <ele>594.71</ele>
        <time>2020-08-30T08:23:57Z</time>
      </trkpt>
      <trkpt lat="44.60256" lon="2.54646">
        <ele>593.27</ele>
        <time>2020-08-30T08:24:12Z</time>
      </trkpt>
      <trkpt lat="44.60246" lon="2.5463">
        <ele>591.83</ele>
        <time>2020-08-30T08:24:27Z</time>
      </trkpt>
      <trkpt lat="44.6024" lon="2.54622">
        <ele>591.35</ele>
        <time>2020-08-30T08:24:36Z</time>
      </trkpt>
      <trkpt lat="44.60227" lon="2.54611">
        <ele>590.39</ele>
        <time>2020-08-30T08:24:51Z</time>
      </trkpt>
      <trkpt lat="44.6021" lon="2.54603">
        <ele>590.39</ele>
        <time>2020-08-30T08:25:06Z</time>
      </trkpt>
      <trkpt lat="44.60197" lon="2.54591">
        <ele>588.95</ele>
        <time>2020-08-30T08:25:23Z</time>
      </trkpt>
      <trkpt lat="44.60195" lon="2.54577">
        <ele>588.95</ele>
        <time>2020-08-30T08:25:37Z</time>
      </trkpt>
      <trkpt lat="44.60194" lon="2.54567">
        <ele>588.95</ele>
        <time>2020-08-30T08:26:09Z</time>
      </trkpt>
      <trkpt lat="44.60199" lon="2.54585">
        <ele>588.95</ele>
        <time>2020-08-30T08:26:28Z</time>
      </trkpt>
      <trkpt lat="44.60196" lon="2.54595">
        <ele>590.39</ele>
        <time>2020-08-30T08:26:40Z</time>
      </trkpt>
      <trkpt lat="44.60197" lon="2.54601">
        <ele>591.35</ele>
        <time>2020-08-30T08:27:01Z</time>
      </trkpt>
      <trkpt lat="44.60196" lon="2.54609">
        <ele>591.35</ele>
        <time>2020-08-30T08:27:31Z</time>
      </trkpt>
      <trkpt lat="44.60196" lon="2.54601">
        <ele>591.83</ele>
        <time>2020-08-30T08:28:04Z</time>
      </trkpt>
      <trkpt lat="44.60191" lon="2.54607">
        <ele>591.83</ele>
        <time>2020-08-30T08:28:23Z</time>
      </trkpt>
      <trkpt lat="44.60192" lon="2.54611">
        <ele>591.83</ele>
        <time>2020-08-30T08:28:51Z</time>
      </trkpt>
      <trkpt lat="44.60196" lon="2.54611">
        <ele>591.83</ele>
        <time>2020-08-30T08:29:21Z</time>
      </trkpt>
      <trkpt lat="44.60196" lon="2.54604">
        <ele>591.83</ele>
        <time>2020-08-30T08:29:43Z</time>
      </trkpt>
      <trkpt lat="44.60191" lon="2.54608">
        <ele>591.83</ele>
        <time>2020-08-30T08:30:01Z</time>
      </trkpt>
      <trkpt lat="44.60189" lon="2.546">
        <ele>591.83</ele>
        <time>2020-08-30T08:30:21Z</time>
      </trkpt>
      <trkpt lat="44.60197" lon="2.54604">
        <ele>591.83</ele>
        <time>2020-08-30T08:30:40Z</time>
      </trkpt>
      <trkpt lat="44.60191" lon="2.54601">
        <ele>592.31</ele>
        <time>2020-08-30T08:31:02Z</time>
      </trkpt>
      <trkpt lat="44.60189" lon="2.54594">
        <ele>592.31</ele>
        <time>2020-08-30T08:31:45Z</time>
      </trkpt>
      <trkpt lat="44.60191" lon="2.54598">
        <ele>592.31</ele>
        <time>2020-08-30T08:32:08Z</time>
      </trkpt>
      <trkpt lat="44.60195" lon="2.54598">
        <ele>592.31</ele>
        <time>2020-08-30T08:32:37Z</time>
      </trkpt>
      <trkpt lat="44.60195" lon="2.54594">
        <ele>592.31</ele>
        <time>2020-08-30T08:33:06Z</time>
      </trkpt>
      <trkpt lat="44.60191" lon="2.54591">
        <ele>592.31</ele>
        <time>2020-08-30T08:33:34Z</time>
      </trkpt>
      <trkpt lat="44.60184" lon="2.54599">
        <ele>592.31</ele>
        <time>2020-08-30T08:33:59Z</time>
      </trkpt>
      <trkpt lat="44.60179" lon="2.54606">
        <ele>592.79</ele>
        <time>2020-08-30T08:34:19Z</time>
      </trkpt>
      <trkpt lat="44.60161" lon="2.54606">
        <ele>593.75</ele>
        <time>2020-08-30T08:34:36Z</time>
      </trkpt>
      <trkpt lat="44.60154" lon="2.546">
        <ele>594.71</ele>
        <time>2020-08-30T08:34:48Z</time>
      </trkpt>
      <trkpt lat="44.60143" lon="2.54593">
        <ele>596.64</ele>
        <time>2020-08-30T08:35:06Z</time>
      </trkpt>
      <trkpt lat="44.6014" lon="2.54591">
        <ele>597.12</ele>
        <time>2020-08-30T08:35:09Z</time>
      </trkpt>
      <trkpt lat="44.60131" lon="2.54584">
        <ele>598.56</ele>
        <time>2020-08-30T08:35:23Z</time>
      </trkpt>
      <trkpt lat="44.60116" lon="2.54582">
        <ele>600</ele>
        <time>2020-08-30T08:35:38Z</time>
      </trkpt>
      <trkpt lat="44.60101" lon="2.54568">
        <ele>600.48</ele>
        <time>2020-08-30T08:35:54Z</time>
      </trkpt>
      <trkpt lat="44.60102" lon="2.54547">
        <ele>600.48</ele>
        <time>2020-08-30T08:36:09Z</time>
      </trkpt>
      <trkpt lat="44.60103" lon="2.54536">
        <ele>600.48</ele>
        <time>2020-08-30T08:36:17Z</time>
      </trkpt>
      <trkpt lat="44.60102" lon="2.54508">
        <ele>600.96</ele>
        <time>2020-08-30T08:36:35Z</time>
      </trkpt>
      <trkpt lat="44.60102" lon="2.5448">
        <ele>601.92</ele>
        <time>2020-08-30T08:36:54Z</time>
      </trkpt>
      <trkpt lat="44.60103" lon="2.54458">
        <ele>603.36</ele>
        <time>2020-08-30T08:37:10Z</time>
      </trkpt>
      <trkpt lat="44.60104" lon="2.54437">
        <ele>604.33</ele>
        <time>2020-08-30T08:37:26Z</time>
      </trkpt>
      <trkpt lat="44.60105" lon="2.54416">
        <ele>606.25</ele>
        <time>2020-08-30T08:37:42Z</time>
      </trkpt>
      <trkpt lat="44.60107" lon="2.544">
        <ele>608.17</ele>
        <time>2020-08-30T08:37:56Z</time>
      </trkpt>
      <trkpt lat="44.60106" lon="2.54382">
        <ele>609.61</ele>
        <time>2020-08-30T08:38:11Z</time>
      </trkpt>
      <trkpt lat="44.60106" lon="2.54364">
        <ele>612.02</ele>
        <time>2020-08-30T08:38:27Z</time>
      </trkpt>
      <trkpt lat="44.60107" lon="2.54343">
        <ele>612.98</ele>
        <time>2020-08-30T08:38:43Z</time>
      </trkpt>
      <trkpt lat="44.60107" lon="2.54318">
        <ele>614.9</ele>
        <time>2020-08-30T08:39:02Z</time>
      </trkpt>
      <trkpt lat="44.60107" lon="2.54299">
        <ele>615.86</ele>
        <time>2020-08-30T08:39:17Z</time>
      </trkpt>
      <trkpt lat="44.60105" lon="2.54277">
        <ele>617.3</ele>
        <time>2020-08-30T08:39:33Z</time>
      </trkpt>
      <trkpt lat="44.60101" lon="2.54252">
        <ele>618.26</ele>
        <time>2020-08-30T08:39:52Z</time>
      </trkpt>
      <trkpt lat="44.60097" lon="2.54227">
        <ele>619.23</ele>
        <time>2020-08-30T08:40:09Z</time>
      </trkpt>
      <trkpt lat="44.60092" lon="2.54202">
        <ele>619.71</ele>
        <time>2020-08-30T08:40:26Z</time>
      </trkpt>
      <trkpt lat="44.60088" lon="2.54178">
        <ele>620.67</ele>
        <time>2020-08-30T08:40:44Z</time>
      </trkpt>
      <trkpt lat="44.60084" lon="2.54156">
        <ele>621.15</ele>
        <time>2020-08-30T08:41:01Z</time>
      </trkpt>
      <trkpt lat="44.6008" lon="2.54134">
        <ele>622.11</ele>
        <time>2020-08-30T08:41:17Z</time>
      </trkpt>
      <trkpt lat="44.60077" lon="2.54114">
        <ele>623.07</ele>
        <time>2020-08-30T08:41:31Z</time>
      </trkpt>
      <trkpt lat="44.60076" lon="2.54088">
        <ele>624.03</ele>
        <time>2020-08-30T08:41:49Z</time>
      </trkpt>
      <trkpt lat="44.60076" lon="2.54063">
        <ele>624.99</ele>
        <time>2020-08-30T08:42:06Z</time>
      </trkpt>
      <trkpt lat="44.60076" lon="2.54039">
        <ele>626.92</ele>
        <time>2020-08-30T08:42:24Z</time>
      </trkpt>
      <trkpt lat="44.60073" lon="2.54023">
        <ele>627.88</ele>
        <time>2020-08-30T08:42:42Z</time>
      </trkpt>
      <trkpt lat="44.60071" lon="2.54019">
        <ele>628.36</ele>
        <time>2020-08-30T08:43:00Z</time>
      </trkpt>
      <trkpt lat="44.60071" lon="2.54017">
        <ele>628.36</ele>
        <time>2020-08-30T08:43:25Z</time>
      </trkpt>
      <trkpt lat="44.60069" lon="2.53997">
        <ele>628.36</ele>
        <time>2020-08-30T08:43:41Z</time>
      </trkpt>
      <trkpt lat="44.60066" lon="2.53987">
        <ele>628.36</ele>
        <time>2020-08-30T08:43:49Z</time>
      </trkpt>
      <trkpt lat="44.60054" lon="2.53962">
        <ele>629.8</ele>
        <time>2020-08-30T08:44:09Z</time>
      </trkpt>
      <trkpt lat="44.60042" lon="2.5394">
        <ele>631.24</ele>
        <time>2020-08-30T08:44:28Z</time>
      </trkpt>
      <trkpt lat="44.60031" lon="2.5392">
        <ele>632.2</ele>
        <time>2020-08-30T08:44:45Z</time>
      </trkpt>
      <trkpt lat="44.6002" lon="2.53901">
        <ele>633.65</ele>
        <time>2020-08-30T08:45:02Z</time>
      </trkpt>
      <trkpt lat="44.60009" lon="2.53876">
        <ele>634.61</ele>
        <time>2020-08-30T08:45:21Z</time>
      </trkpt>
      <trkpt lat="44.6" lon="2.53854">
        <ele>636.05</ele>
        <time>2020-08-30T08:45:37Z</time>
      </trkpt>
      <trkpt lat="44.5999" lon="2.5383">
        <ele>637.49</ele>
        <time>2020-08-30T08:45:55Z</time>
      </trkpt>
      <trkpt lat="44.5998" lon="2.53806">
        <ele>637.97</ele>
        <time>2020-08-30T08:46:12Z</time>
      </trkpt>
      <trkpt lat="44.59971" lon="2.53784">
        <ele>638.93</ele>
        <time>2020-08-30T08:46:28Z</time>
      </trkpt>
      <trkpt lat="44.59963" lon="2.53763">
        <ele>639.89</ele>
        <time>2020-08-30T08:46:44Z</time>
      </trkpt>
      <trkpt lat="44.59955" lon="2.53737">
        <ele>641.82</ele>
        <time>2020-08-30T08:47:03Z</time>
      </trkpt>
      <trkpt lat="44.59955" lon="2.53731">
        <ele>641.82</ele>
        <time>2020-08-30T08:47:08Z</time>
      </trkpt>
      <trkpt lat="44.59962" lon="2.53719">
        <ele>642.3</ele>
        <time>2020-08-30T08:47:21Z</time>
      </trkpt>
      <trkpt lat="44.5997" lon="2.53706">
        <ele>640.86</ele>
        <time>2020-08-30T08:47:33Z</time>
      </trkpt>
      <trkpt lat="44.59975" lon="2.53701">
        <ele>640.86</ele>
        <time>2020-08-30T08:47:38Z</time>
      </trkpt>
      <trkpt lat="44.59993" lon="2.53674">
        <ele>640.86</ele>
        <time>2020-08-30T08:48:02Z</time>
      </trkpt>
      <trkpt lat="44.60009" lon="2.53654">
        <ele>640.38</ele>
        <time>2020-08-30T08:48:21Z</time>
      </trkpt>
      <trkpt lat="44.60024" lon="2.53626">
        <ele>640.38</ele>
        <time>2020-08-30T08:48:43Z</time>
      </trkpt>
      <trkpt lat="44.60018" lon="2.53601">
        <ele>640.38</ele>
        <time>2020-08-30T08:49:02Z</time>
      </trkpt>
      <trkpt lat="44.60004" lon="2.5358">
        <ele>639.41</ele>
        <time>2020-08-30T08:49:22Z</time>
      </trkpt>
      <trkpt lat="44.59998" lon="2.53558">
        <ele>637.01</ele>
        <time>2020-08-30T08:49:42Z</time>
      </trkpt>
      <trkpt lat="44.59995" lon="2.53554">
        <ele>637.49</ele>
        <time>2020-08-30T08:50:15Z</time>
      </trkpt>
      <trkpt lat="44.59997" lon="2.5355">
        <ele>637.01</ele>
        <time>2020-08-30T08:50:47Z</time>
      </trkpt>
      <trkpt lat="44.59997" lon="2.53549">
        <ele>636.53</ele>
        <time>2020-08-30T08:51:14Z</time>
      </trkpt>
      <trkpt lat="44.59999" lon="2.53552">
        <ele>636.53</ele>
        <time>2020-08-30T08:51:40Z</time>
      </trkpt>
      <trkpt lat="44.59996" lon="2.53554">
        <ele>637.97</ele>
        <time>2020-08-30T08:51:58Z</time>
      </trkpt>
      <trkpt lat="44.59995" lon="2.53554">
        <ele>637.97</ele>
        <time>2020-08-30T08:52:15Z</time>
      </trkpt>
      <trkpt lat="44.59995" lon="2.53555">
        <ele>637.97</ele>
        <time>2020-08-30T08:52:46Z</time>
      </trkpt>
      <trkpt lat="44.59996" lon="2.53558">
        <ele>637.97</ele>
        <time>2020-08-30T08:53:07Z</time>
      </trkpt>
      <trkpt lat="44.59995" lon="2.53559">
        <ele>637.97</ele>
        <time>2020-08-30T08:53:37Z</time>
      </trkpt>
      <trkpt lat="44.59995" lon="2.53559">
        <ele>637.97</ele>
        <time>2020-08-30T08:54:10Z</time>
      </trkpt>
      <trkpt lat="44.59996" lon="2.53557">
        <ele>637.97</ele>
        <time>2020-08-30T08:54:42Z</time>
      </trkpt>
      <trkpt lat="44.59996" lon="2.53556">
        <ele>637.97</ele>
        <time>2020-08-30T08:55:01Z</time>
      </trkpt>
      <trkpt lat="44.59998" lon="2.53552">
        <ele>637.01</ele>
        <time>2020-08-30T08:55:28Z</time>
      </trkpt>
      <trkpt lat="44.60005" lon="2.53535">
        <ele>635.57</ele>
        <time>2020-08-30T08:55:45Z</time>
      </trkpt>
      <trkpt lat="44.60011" lon="2.53526">
        <ele>634.13</ele>
        <time>2020-08-30T08:55:54Z</time>
      </trkpt>
      <trkpt lat="44.60024" lon="2.53501">
        <ele>632.2</ele>
        <time>2020-08-30T08:56:16Z</time>
      </trkpt>
      <trkpt lat="44.60031" lon="2.53474">
        <ele>629.8</ele>
        <time>2020-08-30T08:56:36Z</time>
      </trkpt>
      <trkpt lat="44.60035" lon="2.53445">
        <ele>626.92</ele>
        <time>2020-08-30T08:56:58Z</time>
      </trkpt>
      <trkpt lat="44.60044" lon="2.53409">
        <ele>624.99</ele>
        <time>2020-08-30T08:57:19Z</time>
      </trkpt>
      <trkpt lat="44.60049" lon="2.5338">
        <ele>622.11</ele>
        <time>2020-08-30T08:57:38Z</time>
      </trkpt>
      <trkpt lat="44.60049" lon="2.53378">
        <ele>622.11</ele>
        <time>2020-08-30T08:57:39Z</time>
      </trkpt>
      <trkpt lat="44.60052" lon="2.53341">
        <ele>620.19</ele>
        <time>2020-08-30T08:58:03Z</time>
      </trkpt>
      <trkpt lat="44.60054" lon="2.53309">
        <ele>616.34</ele>
        <time>2020-08-30T08:58:27Z</time>
      </trkpt>
      <trkpt lat="44.6004" lon="2.533">
        <ele>613.94</ele>
        <time>2020-08-30T08:58:47Z</time>
      </trkpt>
      <trkpt lat="44.60017" lon="2.53326">
        <ele>610.57</ele>
        <time>2020-08-30T08:59:12Z</time>
      </trkpt>
      <trkpt lat="44.60003" lon="2.5335">
        <ele>608.17</ele>
        <time>2020-08-30T08:59:35Z</time>
      </trkpt>
      <trkpt lat="44.59982" lon="2.53371">
        <ele>605.29</ele>
        <time>2020-08-30T08:59:57Z</time>
      </trkpt>
      <trkpt lat="44.59965" lon="2.53387">
        <ele>604.81</ele>
        <time>2020-08-30T09:00:14Z</time>
      </trkpt>
      <trkpt lat="44.59949" lon="2.53396">
        <ele>602.4</ele>
        <time>2020-08-30T09:00:33Z</time>
      </trkpt>
      <trkpt lat="44.59937" lon="2.53386">
        <ele>600</ele>
        <time>2020-08-30T09:00:52Z</time>
      </trkpt>
      <trkpt lat="44.59939" lon="2.53375">
        <ele>599.52</ele>
        <time>2020-08-30T09:01:00Z</time>
      </trkpt>
      <trkpt lat="44.59953" lon="2.53355">
        <ele>597.6</ele>
        <time>2020-08-30T09:01:20Z</time>
      </trkpt>
      <trkpt lat="44.59965" lon="2.53335">
        <ele>594.71</ele>
        <time>2020-08-30T09:01:40Z</time>
      </trkpt>
      <trkpt lat="44.59971" lon="2.5331">
        <ele>592.31</ele>
        <time>2020-08-30T09:01:58Z</time>
      </trkpt>
      <trkpt lat="44.59975" lon="2.53283">
        <ele>589.43</ele>
        <time>2020-08-30T09:02:17Z</time>
      </trkpt>
      <trkpt lat="44.59981" lon="2.53261">
        <ele>586.54</ele>
        <time>2020-08-30T09:02:36Z</time>
      </trkpt>
      <trkpt lat="44.59984" lon="2.53241">
        <ele>584.62</ele>
        <time>2020-08-30T09:02:50Z</time>
      </trkpt>
      <trkpt lat="44.59988" lon="2.53214">
        <ele>582.22</ele>
        <time>2020-08-30T09:03:09Z</time>
      </trkpt>
      <trkpt lat="44.5999" lon="2.53191">
        <ele>580.29</ele>
        <time>2020-08-30T09:03:25Z</time>
      </trkpt>
      <trkpt lat="44.59993" lon="2.53163">
        <ele>577.89</ele>
        <time>2020-08-30T09:03:44Z</time>
      </trkpt>
      <trkpt lat="44.59996" lon="2.53131">
        <ele>575.01</ele>
        <time>2020-08-30T09:04:05Z</time>
      </trkpt>
      <trkpt lat="44.6" lon="2.53104">
        <ele>572.6</ele>
        <time>2020-08-30T09:04:26Z</time>
      </trkpt>
      <trkpt lat="44.60003" lon="2.53079">
        <ele>570.68</ele>
        <time>2020-08-30T09:04:41Z</time>
      </trkpt>
      <trkpt lat="44.60006" lon="2.5305">
        <ele>568.76</ele>
        <time>2020-08-30T09:04:57Z</time>
      </trkpt>
      <trkpt lat="44.60014" lon="2.53029">
        <ele>566.83</ele>
        <time>2020-08-30T09:05:14Z</time>
      </trkpt>
      <trkpt lat="44.60024" lon="2.53007">
        <ele>564.91</ele>
        <time>2020-08-30T09:05:31Z</time>
      </trkpt>
      <trkpt lat="44.60035" lon="2.52991">
        <ele>563.47</ele>
        <time>2020-08-30T09:05:47Z</time>
      </trkpt>
      <trkpt lat="44.60052" lon="2.52968">
        <ele>561.07</ele>
        <time>2020-08-30T09:06:06Z</time>
      </trkpt>
      <trkpt lat="44.60053" lon="2.52967">
        <ele>561.07</ele>
        <time>2020-08-30T09:06:07Z</time>
      </trkpt>
      <trkpt lat="44.6007" lon="2.52946">
        <ele>558.66</ele>
        <time>2020-08-30T09:06:29Z</time>
      </trkpt>
      <trkpt lat="44.60086" lon="2.52931">
        <ele>557.7</ele>
        <time>2020-08-30T09:06:49Z</time>
      </trkpt>
      <trkpt lat="44.60099" lon="2.52922">
        <ele>554.34</ele>
        <time>2020-08-30T09:07:04Z</time>
      </trkpt>
      <trkpt lat="44.60119" lon="2.52901">
        <ele>551.93</ele>
        <time>2020-08-30T09:07:25Z</time>
      </trkpt>
      <trkpt lat="44.60137" lon="2.52879">
        <ele>550.01</ele>
        <time>2020-08-30T09:07:46Z</time>
      </trkpt>
      <trkpt lat="44.60145" lon="2.52871">
        <ele>548.57</ele>
        <time>2020-08-30T09:07:56Z</time>
      </trkpt>
      <trkpt lat="44.60166" lon="2.52859">
        <ele>546.65</ele>
        <time>2020-08-30T09:08:18Z</time>
      </trkpt>
      <trkpt lat="44.60181" lon="2.52853">
        <ele>544.24</ele>
        <time>2020-08-30T09:08:34Z</time>
      </trkpt>
      <trkpt lat="44.60193" lon="2.52844">
        <ele>542.32</ele>
        <time>2020-08-30T09:08:51Z</time>
      </trkpt>
      <trkpt lat="44.60193" lon="2.52844">
        <ele>542.32</ele>
        <time>2020-08-30T09:08:52Z</time>
      </trkpt>
      <trkpt lat="44.60206" lon="2.52837">
        <ele>540.4</ele>
        <time>2020-08-30T09:09:05Z</time>
      </trkpt>
      <trkpt lat="44.60212" lon="2.52839">
        <ele>539.44</ele>
        <time>2020-08-30T09:09:22Z</time>
      </trkpt>
      <trkpt lat="44.60215" lon="2.52828">
        <ele>537.99</ele>
        <time>2020-08-30T09:09:42Z</time>
      </trkpt>
      <trkpt lat="44.60197" lon="2.52823">
        <ele>535.11</ele>
        <time>2020-08-30T09:10:02Z</time>
      </trkpt>
      <trkpt lat="44.6017" lon="2.52812">
        <ele>532.23</ele>
        <time>2020-08-30T09:10:25Z</time>
      </trkpt>
      <trkpt lat="44.60148" lon="2.52803">
        <ele>529.34</ele>
        <time>2020-08-30T09:10:47Z</time>
      </trkpt>
      <trkpt lat="44.60121" lon="2.52804">
        <ele>526.46</ele>
        <time>2020-08-30T09:11:11Z</time>
      </trkpt>
      <trkpt lat="44.60117" lon="2.52803">
        <ele>525.98</ele>
        <time>2020-08-30T09:11:14Z</time>
      </trkpt>
      <trkpt lat="44.60097" lon="2.52812">
        <ele>524.54</ele>
        <time>2020-08-30T09:11:35Z</time>
      </trkpt>
      <trkpt lat="44.60072" lon="2.52825">
        <ele>521.17</ele>
        <time>2020-08-30T09:11:57Z</time>
      </trkpt>
      <trkpt lat="44.60048" lon="2.52839">
        <ele>519.25</ele>
        <time>2020-08-30T09:12:19Z</time>
      </trkpt>
      <trkpt lat="44.60036" lon="2.52847">
        <ele>518.29</ele>
        <time>2020-08-30T09:12:30Z</time>
      </trkpt>
      <trkpt lat="44.60015" lon="2.52843">
        <ele>515.4</ele>
        <time>2020-08-30T09:12:52Z</time>
      </trkpt>
      <trkpt lat="44.59999" lon="2.52832">
        <ele>513</ele>
        <time>2020-08-30T09:13:11Z</time>
      </trkpt>
      <trkpt lat="44.59981" lon="2.5282">
        <ele>510.12</ele>
        <time>2020-08-30T09:13:31Z</time>
      </trkpt>
      <trkpt lat="44.5998" lon="2.52795">
        <ele>507.23</ele>
        <time>2020-08-30T09:13:50Z</time>
      </trkpt>
      <trkpt lat="44.59999" lon="2.5278">
        <ele>504.35</ele>
        <time>2020-08-30T09:14:13Z</time>
      </trkpt>
      <trkpt lat="44.6" lon="2.5278">
        <ele>504.35</ele>
        <time>2020-08-30T09:14:14Z</time>
      </trkpt>
      <trkpt lat="44.60021" lon="2.52779">
        <ele>501.46</ele>
        <time>2020-08-30T09:14:34Z</time>
      </trkpt>
      <trkpt lat="44.6004" lon="2.5276">
        <ele>500.02</ele>
        <time>2020-08-30T09:14:55Z</time>
      </trkpt>
      <trkpt lat="44.60061" lon="2.52733">
        <ele>497.62</ele>
        <time>2020-08-30T09:15:19Z</time>
      </trkpt>
      <trkpt lat="44.60081" lon="2.52704">
        <ele>496.66</ele>
        <time>2020-08-30T09:15:42Z</time>
      </trkpt>
      <trkpt lat="44.60098" lon="2.52684">
        <ele>494.74</ele>
        <time>2020-08-30T09:16:01Z</time>
      </trkpt>
      <trkpt lat="44.60108" lon="2.52679">
        <ele>494.26</ele>
        <time>2020-08-30T09:16:20Z</time>
      </trkpt>
      <trkpt lat="44.60109" lon="2.52678">
        <ele>494.26</ele>
        <time>2020-08-30T09:16:38Z</time>
      </trkpt>
      <trkpt lat="44.60106" lon="2.52676">
        <ele>494.26</ele>
        <time>2020-08-30T09:17:11Z</time>
      </trkpt>
      <trkpt lat="44.60109" lon="2.52674">
        <ele>494.26</ele>
        <time>2020-08-30T09:17:45Z</time>
      </trkpt>
      <trkpt lat="44.60106" lon="2.52675">
        <ele>494.74</ele>
        <time>2020-08-30T09:18:16Z</time>
      </trkpt>
      <trkpt lat="44.60104" lon="2.52678">
        <ele>494.74</ele>
        <time>2020-08-30T09:18:30Z</time>
      </trkpt>
      <trkpt lat="44.60111" lon="2.52681">
        <ele>495.7</ele>
        <time>2020-08-30T09:18:47Z</time>
      </trkpt>
      <trkpt lat="44.60113" lon="2.52683">
        <ele>496.18</ele>
        <time>2020-08-30T09:19:14Z</time>
      </trkpt>
      <trkpt lat="44.60115" lon="2.52682">
        <ele>496.18</ele>
        <time>2020-08-30T09:19:41Z</time>
      </trkpt>
      <trkpt lat="44.60116" lon="2.52677">
        <ele>496.18</ele>
        <time>2020-08-30T09:20:06Z</time>
      </trkpt>
      <trkpt lat="44.60115" lon="2.52671">
        <ele>495.22</ele>
        <time>2020-08-30T09:20:29Z</time>
      </trkpt>
      <trkpt lat="44.60112" lon="2.52676">
        <ele>495.22</ele>
        <time>2020-08-30T09:21:00Z</time>
      </trkpt>
      <trkpt lat="44.60113" lon="2.52673">
        <ele>495.22</ele>
        <time>2020-08-30T09:21:36Z</time>
      </trkpt>
      <trkpt lat="44.60111" lon="2.52673">
        <ele>495.7</ele>
        <time>2020-08-30T09:22:16Z</time>
      </trkpt>
      <trkpt lat="44.60113" lon="2.52677">
        <ele>495.7</ele>
        <time>2020-08-30T09:22:59Z</time>
      </trkpt>
      <trkpt lat="44.60113" lon="2.52677">
        <ele>495.7</ele>
        <time>2020-08-30T09:23:28Z</time>
      </trkpt>
      <trkpt lat="44.6012" lon="2.52675">
        <ele>496.18</ele>
        <time>2020-08-30T09:23:53Z</time>
      </trkpt>
      <trkpt lat="44.60117" lon="2.52675">
        <ele>496.18</ele>
        <time>2020-08-30T09:24:14Z</time>
      </trkpt>
      <trkpt lat="44.6011" lon="2.5267">
        <ele>496.18</ele>
        <time>2020-08-30T09:24:41Z</time>
      </trkpt>
      <trkpt lat="44.60113" lon="2.52674">
        <ele>496.18</ele>
        <time>2020-08-30T09:25:09Z</time>
      </trkpt>
      <trkpt lat="44.60116" lon="2.52674">
        <ele>496.18</ele>
        <time>2020-08-30T09:25:53Z</time>
      </trkpt>
      <trkpt lat="44.60116" lon="2.52673">
        <ele>496.66</ele>
        <time>2020-08-30T09:26:36Z</time>
      </trkpt>
      <trkpt lat="44.60114" lon="2.52671">
        <ele>496.66</ele>
        <time>2020-08-30T09:27:27Z</time>
      </trkpt>
      <trkpt lat="44.60112" lon="2.52667">
        <ele>497.14</ele>
        <time>2020-08-30T09:28:07Z</time>
      </trkpt>
      <trkpt lat="44.60112" lon="2.52671">
        <ele>497.62</ele>
        <time>2020-08-30T09:28:52Z</time>
      </trkpt>
      <trkpt lat="44.60114" lon="2.52674">
        <ele>498.1</ele>
        <time>2020-08-30T09:29:44Z</time>
      </trkpt>
      <trkpt lat="44.60117" lon="2.5267">
        <ele>498.1</ele>
        <time>2020-08-30T09:30:28Z</time>
      </trkpt>
      <trkpt lat="44.60115" lon="2.52667">
        <ele>498.58</ele>
        <time>2020-08-30T09:31:11Z</time>
      </trkpt>
      <trkpt lat="44.60111" lon="2.52666">
        <ele>498.58</ele>
        <time>2020-08-30T09:31:54Z</time>
      </trkpt>
      <trkpt lat="44.60109" lon="2.52671">
        <ele>498.58</ele>
        <time>2020-08-30T09:32:32Z</time>
      </trkpt>
      <trkpt lat="44.60113" lon="2.52677">
        <ele>499.06</ele>
        <time>2020-08-30T09:33:07Z</time>
      </trkpt>
      <trkpt lat="44.60117" lon="2.52675">
        <ele>499.06</ele>
        <time>2020-08-30T09:33:42Z</time>
      </trkpt>
      <trkpt lat="44.60115" lon="2.52673">
        <ele>499.54</ele>
        <time>2020-08-30T09:34:18Z</time>
      </trkpt>
      <trkpt lat="44.60113" lon="2.52671">
        <ele>499.54</ele>
        <time>2020-08-30T09:34:52Z</time>
      </trkpt>
      <trkpt lat="44.60111" lon="2.52667">
        <ele>500.02</ele>
        <time>2020-08-30T09:35:32Z</time>
      </trkpt>
      <trkpt lat="44.60114" lon="2.52673">
        <ele>500.02</ele>
        <time>2020-08-30T09:36:02Z</time>
      </trkpt>
      <trkpt lat="44.60113" lon="2.52681">
        <ele>500.02</ele>
        <time>2020-08-30T09:36:27Z</time>
      </trkpt>
      <trkpt lat="44.60111" lon="2.52684">
        <ele>501.46</ele>
        <time>2020-08-30T09:36:51Z</time>
      </trkpt>
      <trkpt lat="44.6011" lon="2.52687">
        <ele>501.46</ele>
        <time>2020-08-30T09:37:07Z</time>
      </trkpt>
      <trkpt lat="44.60114" lon="2.52688">
        <ele>501.46</ele>
        <time>2020-08-30T09:37:20Z</time>
      </trkpt>
      <trkpt lat="44.6012" lon="2.52692">
        <ele>501.95</ele>
        <time>2020-08-30T09:37:36Z</time>
      </trkpt>
      <trkpt lat="44.60129" lon="2.52694">
        <ele>501.95</ele>
        <time>2020-08-30T09:37:51Z</time>
      </trkpt>
      <trkpt lat="44.60133" lon="2.52696">
        <ele>501.95</ele>
        <time>2020-08-30T09:38:06Z</time>
      </trkpt>
      <trkpt lat="44.60126" lon="2.52693">
        <ele>501.95</ele>
        <time>2020-08-30T09:38:20Z</time>
      </trkpt>
      <trkpt lat="44.60121" lon="2.52687">
        <ele>501.95</ele>
        <time>2020-08-30T09:38:34Z</time>
      </trkpt>
      <trkpt lat="44.60111" lon="2.52682">
        <ele>500.5</ele>
        <time>2020-08-30T09:38:49Z</time>
      </trkpt>
      <trkpt lat="44.60116" lon="2.52671">
        <ele>500.02</ele>
        <time>2020-08-30T09:39:04Z</time>
      </trkpt>
      <trkpt lat="44.60127" lon="2.52674">
        <ele>498.58</ele>
        <time>2020-08-30T09:39:20Z</time>
      </trkpt>
      <trkpt lat="44.60138" lon="2.52677">
        <ele>496.66</ele>
        <time>2020-08-30T09:39:35Z</time>
      </trkpt>
      <trkpt lat="44.60155" lon="2.52669">
        <ele>495.22</ele>
        <time>2020-08-30T09:39:50Z</time>
      </trkpt>
      <trkpt lat="44.60168" lon="2.52652">
        <ele>493.77</ele>
        <time>2020-08-30T09:40:04Z</time>
      </trkpt>
      <trkpt lat="44.6018" lon="2.52632">
        <ele>492.81</ele>
        <time>2020-08-30T09:40:20Z</time>
      </trkpt>
      <trkpt lat="44.60182" lon="2.52628">
        <ele>492.81</ele>
        <time>2020-08-30T09:40:23Z</time>
      </trkpt>
      <trkpt lat="44.60194" lon="2.52603">
        <ele>491.85</ele>
        <time>2020-08-30T09:40:41Z</time>
      </trkpt>
      <trkpt lat="44.60207" lon="2.52578">
        <ele>491.37</ele>
        <time>2020-08-30T09:41:02Z</time>
      </trkpt>
      <trkpt lat="44.60218" lon="2.52562">
        <ele>490.89</ele>
        <time>2020-08-30T09:41:17Z</time>
      </trkpt>
      <trkpt lat="44.60228" lon="2.52548">
        <ele>490.41</ele>
        <time>2020-08-30T09:41:33Z</time>
      </trkpt>
      <trkpt lat="44.60238" lon="2.52538">
        <ele>490.41</ele>
        <time>2020-08-30T09:41:47Z</time>
      </trkpt>
      <trkpt lat="44.60245" lon="2.52532">
        <ele>491.85</ele>
        <time>2020-08-30T09:41:54Z</time>
      </trkpt>
      <trkpt lat="44.60255" lon="2.52525">
        <ele>490.41</ele>
        <time>2020-08-30T09:42:04Z</time>
      </trkpt>
      <trkpt lat="44.60269" lon="2.52515">
        <ele>489.93</ele>
        <time>2020-08-30T09:42:18Z</time>
      </trkpt>
      <trkpt lat="44.60279" lon="2.5251">
        <ele>491.37</ele>
        <time>2020-08-30T09:42:35Z</time>
      </trkpt>
      <trkpt lat="44.6029" lon="2.52501">
        <ele>491.85</ele>
        <time>2020-08-30T09:42:47Z</time>
      </trkpt>
      <trkpt lat="44.60302" lon="2.5249">
        <ele>491.85</ele>
        <time>2020-08-30T09:43:01Z</time>
      </trkpt>
      <trkpt lat="44.60315" lon="2.52478">
        <ele>492.33</ele>
        <time>2020-08-30T09:43:16Z</time>
      </trkpt>
      <trkpt lat="44.60329" lon="2.52469">
        <ele>492.33</ele>
        <time>2020-08-30T09:43:30Z</time>
      </trkpt>
      <trkpt lat="44.60334" lon="2.52466">
        <ele>492.33</ele>
        <time>2020-08-30T09:43:36Z</time>
      </trkpt>
      <trkpt lat="44.60336" lon="2.52466">
        <ele>490.89</ele>
        <time>2020-08-30T09:43:38Z</time>
      </trkpt>
      <trkpt lat="44.60346" lon="2.52466">
        <ele>490.41</ele>
        <time>2020-08-30T09:43:51Z</time>
      </trkpt>
      <trkpt lat="44.6036" lon="2.52459">
        <ele>489.45</ele>
        <time>2020-08-30T09:44:06Z</time>
      </trkpt>
      <trkpt lat="44.60377" lon="2.52449">
        <ele>488.01</ele>
        <time>2020-08-30T09:44:24Z</time>
      </trkpt>
      <trkpt lat="44.6039" lon="2.52438">
        <ele>487.05</ele>
        <time>2020-08-30T09:44:36Z</time>
      </trkpt>
      <trkpt lat="44.604" lon="2.52419">
        <ele>486.08</ele>
        <time>2020-08-30T09:44:54Z</time>
      </trkpt>
      <trkpt lat="44.60407" lon="2.524">
        <ele>485.12</ele>
        <time>2020-08-30T09:45:08Z</time>
      </trkpt>
      <trkpt lat="44.60417" lon="2.52385">
        <ele>483.2</ele>
        <time>2020-08-30T09:45:25Z</time>
      </trkpt>
      <trkpt lat="44.60432" lon="2.52371">
        <ele>481.76</ele>
        <time>2020-08-30T09:45:40Z</time>
      </trkpt>
      <trkpt lat="44.60436" lon="2.52365">
        <ele>481.76</ele>
        <time>2020-08-30T09:45:44Z</time>
      </trkpt>
      <trkpt lat="44.60437" lon="2.52356">
        <ele>480.32</ele>
        <time>2020-08-30T09:45:51Z</time>
      </trkpt>
      <trkpt lat="44.60422" lon="2.52331">
        <ele>479.84</ele>
        <time>2020-08-30T09:46:09Z</time>
      </trkpt>
      <trkpt lat="44.60415" lon="2.52313">
        <ele>479.35</ele>
        <time>2020-08-30T09:46:24Z</time>
      </trkpt>
      <trkpt lat="44.60407" lon="2.5229">
        <ele>479.35</ele>
        <time>2020-08-30T09:46:40Z</time>
      </trkpt>
      <trkpt lat="44.60396" lon="2.52269">
        <ele>478.87</ele>
        <time>2020-08-30T09:46:56Z</time>
      </trkpt>
      <trkpt lat="44.60387" lon="2.52252">
        <ele>478.87</ele>
        <time>2020-08-30T09:47:10Z</time>
      </trkpt>
      <trkpt lat="44.60381" lon="2.5224">
        <ele>480.32</ele>
        <time>2020-08-30T09:47:18Z</time>
      </trkpt>
      <trkpt lat="44.60377" lon="2.52216">
        <ele>479.84</ele>
        <time>2020-08-30T09:47:36Z</time>
      </trkpt>
      <trkpt lat="44.6037" lon="2.52195">
        <ele>480.32</ele>
        <time>2020-08-30T09:47:51Z</time>
      </trkpt>
      <trkpt lat="44.60369" lon="2.52193">
        <ele>481.28</ele>
        <time>2020-08-30T09:47:52Z</time>
      </trkpt>
      <trkpt lat="44.60353" lon="2.5217">
        <ele>481.28</ele>
        <time>2020-08-30T09:48:09Z</time>
      </trkpt>
      <trkpt lat="44.60348" lon="2.52149">
        <ele>481.76</ele>
        <time>2020-08-30T09:48:25Z</time>
      </trkpt>
      <trkpt lat="44.6035" lon="2.52143">
        <ele>481.76</ele>
        <time>2020-08-30T09:48:31Z</time>
      </trkpt>
      <trkpt lat="44.60353" lon="2.52138">
        <ele>481.76</ele>
        <time>2020-08-30T09:48:35Z</time>
      </trkpt>
      <trkpt lat="44.60363" lon="2.52126">
        <ele>481.76</ele>
        <time>2020-08-30T09:48:48Z</time>
      </trkpt>
      <trkpt lat="44.60372" lon="2.52115">
        <ele>481.28</ele>
        <time>2020-08-30T09:49:00Z</time>
      </trkpt>
      <trkpt lat="44.60377" lon="2.52107">
        <ele>480.32</ele>
        <time>2020-08-30T09:49:14Z</time>
      </trkpt>
      <trkpt lat="44.60379" lon="2.52107">
        <ele>481.28</ele>
        <time>2020-08-30T09:49:29Z</time>
      </trkpt>
      <trkpt lat="44.60381" lon="2.52107">
        <ele>480.8</ele>
        <time>2020-08-30T09:50:05Z</time>
      </trkpt>
      <trkpt lat="44.60382" lon="2.52104">
        <ele>479.35</ele>
        <time>2020-08-30T09:50:20Z</time>
      </trkpt>
      <trkpt lat="44.60381" lon="2.52087">
        <ele>478.87</ele>
        <time>2020-08-30T09:50:48Z</time>
      </trkpt>
      <trkpt lat="44.60388" lon="2.52094">
        <ele>478.87</ele>
        <time>2020-08-30T09:51:15Z</time>
      </trkpt>
      <trkpt lat="44.60378" lon="2.52092">
        <ele>478.39</ele>
        <time>2020-08-30T09:51:43Z</time>
      </trkpt>
      <trkpt lat="44.60382" lon="2.52084">
        <ele>477.91</ele>
        <time>2020-08-30T09:51:57Z</time>
      </trkpt>
      <trkpt lat="44.60394" lon="2.52073">
        <ele>476.95</ele>
        <time>2020-08-30T09:52:14Z</time>
      </trkpt>
      <trkpt lat="44.60408" lon="2.52059">
        <ele>475.51</ele>
        <time>2020-08-30T09:52:29Z</time>
      </trkpt>
      <trkpt lat="44.60422" lon="2.52044">
        <ele>473.11</ele>
        <time>2020-08-30T09:52:46Z</time>
      </trkpt>
      <trkpt lat="44.60435" lon="2.52032">
        <ele>472.14</ele>
        <time>2020-08-30T09:53:00Z</time>
      </trkpt>
      <trkpt lat="44.60439" lon="2.52029">
        <ele>471.66</ele>
        <time>2020-08-30T09:53:04Z</time>
      </trkpt>
      <trkpt lat="44.60454" lon="2.52008">
        <ele>470.7</ele>
        <time>2020-08-30T09:53:23Z</time>
      </trkpt>
      <trkpt lat="44.60466" lon="2.51999">
        <ele>469.26</ele>
        <time>2020-08-30T09:53:38Z</time>
      </trkpt>
      <trkpt lat="44.60472" lon="2.51994">
        <ele>468.3</ele>
        <time>2020-08-30T09:53:45Z</time>
      </trkpt>
      <trkpt lat="44.6048" lon="2.51986">
        <ele>467.34</ele>
        <time>2020-08-30T09:53:54Z</time>
      </trkpt>
      <trkpt lat="44.60489" lon="2.51962">
        <ele>466.38</ele>
        <time>2020-08-30T09:54:10Z</time>
      </trkpt>
      <trkpt lat="44.60493" lon="2.5195">
        <ele>465.42</ele>
        <time>2020-08-30T09:54:17Z</time>
      </trkpt>
      <trkpt lat="44.605" lon="2.51944">
        <ele>464.45</ele>
        <time>2020-08-30T09:54:25Z</time>
      </trkpt>
      <trkpt lat="44.60514" lon="2.51943">
        <ele>463.01</ele>
        <time>2020-08-30T09:54:40Z</time>
      </trkpt>
      <trkpt lat="44.60532" lon="2.51942">
        <ele>462.53</ele>
        <time>2020-08-30T09:54:54Z</time>
      </trkpt>
      <trkpt lat="44.60544" lon="2.51935">
        <ele>461.57</ele>
        <time>2020-08-30T09:55:07Z</time>
      </trkpt>
      <trkpt lat="44.60564" lon="2.51919">
        <ele>460.13</ele>
        <time>2020-08-30T09:55:25Z</time>
      </trkpt>
      <trkpt lat="44.60576" lon="2.51906">
        <ele>459.65</ele>
        <time>2020-08-30T09:55:39Z</time>
      </trkpt>
      <trkpt lat="44.60592" lon="2.5189">
        <ele>457.72</ele>
        <time>2020-08-30T09:55:59Z</time>
      </trkpt>
      <trkpt lat="44.606" lon="2.51874">
        <ele>455.32</ele>
        <time>2020-08-30T09:56:15Z</time>
      </trkpt>
      <trkpt lat="44.60588" lon="2.51857">
        <ele>453.4</ele>
        <time>2020-08-30T09:56:32Z</time>
      </trkpt>
      <trkpt lat="44.60584" lon="2.51854">
        <ele>452.92</ele>
        <time>2020-08-30T09:56:36Z</time>
      </trkpt>
      <trkpt lat="44.60564" lon="2.51842">
        <ele>451</ele>
        <time>2020-08-30T09:56:56Z</time>
      </trkpt>
      <trkpt lat="44.60552" lon="2.51832">
        <ele>449.07</ele>
        <time>2020-08-30T09:57:12Z</time>
      </trkpt>
      <trkpt lat="44.60551" lon="2.5182">
        <ele>448.11</ele>
        <time>2020-08-30T09:57:25Z</time>
      </trkpt>
      <trkpt lat="44.60548" lon="2.51822">
        <ele>447.63</ele>
        <time>2020-08-30T09:57:54Z</time>
      </trkpt>
      <trkpt lat="44.60543" lon="2.51824">
        <ele>447.63</ele>
        <time>2020-08-30T09:58:22Z</time>
      </trkpt>
      <trkpt lat="44.60546" lon="2.51798">
        <ele>447.15</ele>
        <time>2020-08-30T09:58:38Z</time>
      </trkpt>
      <trkpt lat="44.60547" lon="2.51795">
        <ele>447.15</ele>
        <time>2020-08-30T09:58:41Z</time>
      </trkpt>
      <trkpt lat="44.60562" lon="2.51773">
        <ele>447.15</ele>
        <time>2020-08-30T09:59:01Z</time>
      </trkpt>
      <trkpt lat="44.60576" lon="2.51756">
        <ele>446.19</ele>
        <time>2020-08-30T09:59:19Z</time>
      </trkpt>
      <trkpt lat="44.60594" lon="2.51737">
        <ele>444.27</ele>
        <time>2020-08-30T09:59:40Z</time>
      </trkpt>
      <trkpt lat="44.60612" lon="2.51715">
        <ele>442.82</ele>
        <time>2020-08-30T10:00:01Z</time>
      </trkpt>
      <trkpt lat="44.60628" lon="2.51694">
        <ele>440.9</ele>
        <time>2020-08-30T10:00:23Z</time>
      </trkpt>
      <trkpt lat="44.60634" lon="2.51685">
        <ele>439.94</ele>
        <time>2020-08-30T10:00:40Z</time>
      </trkpt>
      <trkpt lat="44.60638" lon="2.51679">
        <ele>439.94</ele>
        <time>2020-08-30T10:01:02Z</time>
      </trkpt>
      <trkpt lat="44.6064" lon="2.51676">
        <ele>439.94</ele>
        <time>2020-08-30T10:01:29Z</time>
      </trkpt>
      <trkpt lat="44.60632" lon="2.51666">
        <ele>439.94</ele>
        <time>2020-08-30T10:01:45Z</time>
      </trkpt>
      <trkpt lat="44.60623" lon="2.51651">
        <ele>438.98</ele>
        <time>2020-08-30T10:02:01Z</time>
      </trkpt>
      <trkpt lat="44.60625" lon="2.51633">
        <ele>438.02</ele>
        <time>2020-08-30T10:02:18Z</time>
      </trkpt>
      <trkpt lat="44.60625" lon="2.51627">
        <ele>438.02</ele>
        <time>2020-08-30T10:02:44Z</time>
      </trkpt>
      <trkpt lat="44.60625" lon="2.51629">
        <ele>438.5</ele>
        <time>2020-08-30T10:03:03Z</time>
      </trkpt>
      <trkpt lat="44.60626" lon="2.51629">
        <ele>438.5</ele>
        <time>2020-08-30T10:03:36Z</time>
      </trkpt>
      <trkpt lat="44.60633" lon="2.51626">
        <ele>439.94</ele>
        <time>2020-08-30T10:03:45Z</time>
      </trkpt>
      <trkpt lat="44.60644" lon="2.51621">
        <ele>440.9</ele>
        <time>2020-08-30T10:04:01Z</time>
      </trkpt>
      <trkpt lat="44.60657" lon="2.51609">
        <ele>441.86</ele>
        <time>2020-08-30T10:04:15Z</time>
      </trkpt>
      <trkpt lat="44.60669" lon="2.51604">
        <ele>443.31</ele>
        <time>2020-08-30T10:04:31Z</time>
      </trkpt>
      <trkpt lat="44.60683" lon="2.51596">
        <ele>443.31</ele>
        <time>2020-08-30T10:04:45Z</time>
      </trkpt>
      <trkpt lat="44.60694" lon="2.51588">
        <ele>443.31</ele>
        <time>2020-08-30T10:04:58Z</time>
      </trkpt>
      <trkpt lat="44.60707" lon="2.51578">
        <ele>443.31</ele>
        <time>2020-08-30T10:05:12Z</time>
      </trkpt>
      <trkpt lat="44.6072" lon="2.51571">
        <ele>443.79</ele>
        <time>2020-08-30T10:05:25Z</time>
      </trkpt>
      <trkpt lat="44.60732" lon="2.51563">
        <ele>444.27</ele>
        <time>2020-08-30T10:05:38Z</time>
      </trkpt>
      <trkpt lat="44.60739" lon="2.51562">
        <ele>444.27</ele>
        <time>2020-08-30T10:05:50Z</time>
      </trkpt>
      <trkpt lat="44.60751" lon="2.51563">
        <ele>444.27</ele>
        <time>2020-08-30T10:06:03Z</time>
      </trkpt>
      <trkpt lat="44.60767" lon="2.51566">
        <ele>444.27</ele>
        <time>2020-08-30T10:06:18Z</time>
      </trkpt>
      <trkpt lat="44.60778" lon="2.51572">
        <ele>444.27</ele>
        <time>2020-08-30T10:06:33Z</time>
      </trkpt>
      <trkpt lat="44.60787" lon="2.51584">
        <ele>444.27</ele>
        <time>2020-08-30T10:06:44Z</time>
      </trkpt>
      <trkpt lat="44.60796" lon="2.51595">
        <ele>442.82</ele>
        <time>2020-08-30T10:07:00Z</time>
      </trkpt>
      <trkpt lat="44.60807" lon="2.51605">
        <ele>442.82</ele>
        <time>2020-08-30T10:07:15Z</time>
      </trkpt>
      <trkpt lat="44.6082" lon="2.51615">
        <ele>442.82</ele>
        <time>2020-08-30T10:07:26Z</time>
      </trkpt>
      <trkpt lat="44.60833" lon="2.51624">
        <ele>441.86</ele>
        <time>2020-08-30T10:07:40Z</time>
      </trkpt>
      <trkpt lat="44.60847" lon="2.51627">
        <ele>441.38</ele>
        <time>2020-08-30T10:07:54Z</time>
      </trkpt>
      <trkpt lat="44.60856" lon="2.51625">
        <ele>441.38</ele>
        <time>2020-08-30T10:08:08Z</time>
      </trkpt>
      <trkpt lat="44.60869" lon="2.51631">
        <ele>440.9</ele>
        <time>2020-08-30T10:08:23Z</time>
      </trkpt>
      <trkpt lat="44.60881" lon="2.51639">
        <ele>440.9</ele>
        <time>2020-08-30T10:08:36Z</time>
      </trkpt>
      <trkpt lat="44.60894" lon="2.51647">
        <ele>440.9</ele>
        <time>2020-08-30T10:08:50Z</time>
      </trkpt>
      <trkpt lat="44.60911" lon="2.51642">
        <ele>440.9</ele>
        <time>2020-08-30T10:09:04Z</time>
      </trkpt>
      <trkpt lat="44.60919" lon="2.5163">
        <ele>440.42</ele>
        <time>2020-08-30T10:09:17Z</time>
      </trkpt>
      <trkpt lat="44.60924" lon="2.51614">
        <ele>440.42</ele>
        <time>2020-08-30T10:09:31Z</time>
      </trkpt>
      <trkpt lat="44.60927" lon="2.51594">
        <ele>439.94</ele>
        <time>2020-08-30T10:09:47Z</time>
      </trkpt>
      <trkpt lat="44.60929" lon="2.51578">
        <ele>438.98</ele>
        <time>2020-08-30T10:10:02Z</time>
      </trkpt>
      <trkpt lat="44.60931" lon="2.51569">
        <ele>438.98</ele>
        <time>2020-08-30T10:10:37Z</time>
      </trkpt>
      <trkpt lat="44.60931" lon="2.51574">
        <ele>438.98</ele>
        <time>2020-08-30T10:11:14Z</time>
      </trkpt>
      <trkpt lat="44.60937" lon="2.51571">
        <ele>438.98</ele>
        <time>2020-08-30T10:11:33Z</time>
      </trkpt>
      <trkpt lat="44.60947" lon="2.51569">
        <ele>437.54</ele>
        <time>2020-08-30T10:11:49Z</time>
      </trkpt>
      <trkpt lat="44.60959" lon="2.51565">
        <ele>434.65</ele>
        <time>2020-08-30T10:12:03Z</time>
      </trkpt>
      <trkpt lat="44.60974" lon="2.51555">
        <ele>434.17</ele>
        <time>2020-08-30T10:12:20Z</time>
      </trkpt>
      <trkpt lat="44.60983" lon="2.51544">
        <ele>434.17</ele>
        <time>2020-08-30T10:12:33Z</time>
      </trkpt>
      <trkpt lat="44.60998" lon="2.51534">
        <ele>433.69</ele>
        <time>2020-08-30T10:12:49Z</time>
      </trkpt>
      <trkpt lat="44.61013" lon="2.51525">
        <ele>433.69</ele>
        <time>2020-08-30T10:13:05Z</time>
      </trkpt>
      <trkpt lat="44.61028" lon="2.5152">
        <ele>432.73</ele>
        <time>2020-08-30T10:13:21Z</time>
      </trkpt>
      <trkpt lat="44.61037" lon="2.51506">
        <ele>429.85</ele>
        <time>2020-08-30T10:13:37Z</time>
      </trkpt>
      <trkpt lat="44.61039" lon="2.51489">
        <ele>427.92</ele>
        <time>2020-08-30T10:13:52Z</time>
      </trkpt>
      <trkpt lat="44.61039" lon="2.51474">
        <ele>425.52</ele>
        <time>2020-08-30T10:14:07Z</time>
      </trkpt>
      <trkpt lat="44.6104" lon="2.51457">
        <ele>422.64</ele>
        <time>2020-08-30T10:14:23Z</time>
      </trkpt>
      <trkpt lat="44.61042" lon="2.51443">
        <ele>420.23</ele>
        <time>2020-08-30T10:14:36Z</time>
      </trkpt>
      <trkpt lat="44.61046" lon="2.51427">
        <ele>417.35</ele>
        <time>2020-08-30T10:14:53Z</time>
      </trkpt>
      <trkpt lat="44.61053" lon="2.51411">
        <ele>415.43</ele>
        <time>2020-08-30T10:15:11Z</time>
      </trkpt>
      <trkpt lat="44.61051" lon="2.51396">
        <ele>414.47</ele>
        <time>2020-08-30T10:15:30Z</time>
      </trkpt>
      <trkpt lat="44.61055" lon="2.5139">
        <ele>413.5</ele>
        <time>2020-08-30T10:15:48Z</time>
      </trkpt>
      <trkpt lat="44.61056" lon="2.5138">
        <ele>411.1</ele>
        <time>2020-08-30T10:16:03Z</time>
      </trkpt>
      <trkpt lat="44.61061" lon="2.51367">
        <ele>409.18</ele>
        <time>2020-08-30T10:16:19Z</time>
      </trkpt>
      <trkpt lat="44.61069" lon="2.51361">
        <ele>407.26</ele>
        <time>2020-08-30T10:16:33Z</time>
      </trkpt>
      <trkpt lat="44.61081" lon="2.5136">
        <ele>405.81</ele>
        <time>2020-08-30T10:16:47Z</time>
      </trkpt>
      <trkpt lat="44.61095" lon="2.51355">
        <ele>404.37</ele>
        <time>2020-08-30T10:17:02Z</time>
      </trkpt>
      <trkpt lat="44.61106" lon="2.51351">
        <ele>403.89</ele>
        <time>2020-08-30T10:17:16Z</time>
      </trkpt>
      <trkpt lat="44.61113" lon="2.51351">
        <ele>403.89</ele>
        <time>2020-08-30T10:17:31Z</time>
      </trkpt>
      <trkpt lat="44.6112" lon="2.51348">
        <ele>403.89</ele>
        <time>2020-08-30T10:18:05Z</time>
      </trkpt>
      <trkpt lat="44.6112" lon="2.51359">
        <ele>403.89</ele>
        <time>2020-08-30T10:18:37Z</time>
      </trkpt>
      <trkpt lat="44.61127" lon="2.51364">
        <ele>402.93</ele>
        <time>2020-08-30T10:18:51Z</time>
      </trkpt>
      <trkpt lat="44.61134" lon="2.51375">
        <ele>401.49</ele>
        <time>2020-08-30T10:19:07Z</time>
      </trkpt>
      <trkpt lat="44.61137" lon="2.5139">
        <ele>400.05</ele>
        <time>2020-08-30T10:19:21Z</time>
      </trkpt>
      <trkpt lat="44.6114" lon="2.51408">
        <ele>399.08</ele>
        <time>2020-08-30T10:19:34Z</time>
      </trkpt>
      <trkpt lat="44.61142" lon="2.51425">
        <ele>396.68</ele>
        <time>2020-08-30T10:19:49Z</time>
      </trkpt>
      <trkpt lat="44.61149" lon="2.51431">
        <ele>395.24</ele>
        <time>2020-08-30T10:20:06Z</time>
      </trkpt>
      <trkpt lat="44.61158" lon="2.5144">
        <ele>393.8</ele>
        <time>2020-08-30T10:20:18Z</time>
      </trkpt>
      <trkpt lat="44.61166" lon="2.51446">
        <ele>391.39</ele>
        <time>2020-08-30T10:20:32Z</time>
      </trkpt>
      <trkpt lat="44.61176" lon="2.51455">
        <ele>388.99</ele>
        <time>2020-08-30T10:20:46Z</time>
      </trkpt>
      <trkpt lat="44.61187" lon="2.51464">
        <ele>387.55</ele>
        <time>2020-08-30T10:21:00Z</time>
      </trkpt>
      <trkpt lat="44.61202" lon="2.51474">
        <ele>385.63</ele>
        <time>2020-08-30T10:21:15Z</time>
      </trkpt>
      <trkpt lat="44.6121" lon="2.5149">
        <ele>385.15</ele>
        <time>2020-08-30T10:21:29Z</time>
      </trkpt>
      <trkpt lat="44.61207" lon="2.51507">
        <ele>385.15</ele>
        <time>2020-08-30T10:21:44Z</time>
      </trkpt>
      <trkpt lat="44.61207" lon="2.51531">
        <ele>385.15</ele>
        <time>2020-08-30T10:21:59Z</time>
      </trkpt>
      <trkpt lat="44.61212" lon="2.51545">
        <ele>385.15</ele>
        <time>2020-08-30T10:22:17Z</time>
      </trkpt>
      <trkpt lat="44.61213" lon="2.51556">
        <ele>385.15</ele>
        <time>2020-08-30T10:22:54Z</time>
      </trkpt>
      <trkpt lat="44.61213" lon="2.51566">
        <ele>385.15</ele>
        <time>2020-08-30T10:23:10Z</time>
      </trkpt>
      <trkpt lat="44.61209" lon="2.51571">
        <ele>385.63</ele>
        <time>2020-08-30T10:23:34Z</time>
      </trkpt>
      <trkpt lat="44.61209" lon="2.5157">
        <ele>385.63</ele>
        <time>2020-08-30T10:24:08Z</time>
      </trkpt>
      <trkpt lat="44.61207" lon="2.51569">
        <ele>386.11</ele>
        <time>2020-08-30T10:24:37Z</time>
      </trkpt>
      <trkpt lat="44.61203" lon="2.5157">
        <ele>387.07</ele>
        <time>2020-08-30T10:24:50Z</time>
      </trkpt>
      <trkpt lat="44.61195" lon="2.51554">
        <ele>390.43</ele>
        <time>2020-08-30T10:25:10Z</time>
      </trkpt>
      <trkpt lat="44.61189" lon="2.51542">
        <ele>391.39</ele>
        <time>2020-08-30T10:25:27Z</time>
      </trkpt>
      <trkpt lat="44.61185" lon="2.51545">
        <ele>391.87</ele>
        <time>2020-08-30T10:25:52Z</time>
      </trkpt>
      <trkpt lat="44.6119" lon="2.51553">
        <ele>390.43</ele>
        <time>2020-08-30T10:26:11Z</time>
      </trkpt>
      <trkpt lat="44.61219" lon="2.51564">
        <ele>388.03</ele>
        <time>2020-08-30T10:26:29Z</time>
      </trkpt>
      <trkpt lat="44.61217" lon="2.51537">
        <ele>386.11</ele>
        <time>2020-08-30T10:26:49Z</time>
      </trkpt>
      <trkpt lat="44.61218" lon="2.51533">
        <ele>386.59</ele>
        <time>2020-08-30T10:27:06Z</time>
      </trkpt>
      <trkpt lat="44.61222" lon="2.51533">
        <ele>386.59</ele>
        <time>2020-08-30T10:27:30Z</time>
      </trkpt>
      <trkpt lat="44.6123" lon="2.51538">
        <ele>386.59</ele>
        <time>2020-08-30T10:28:05Z</time>
      </trkpt>
      <trkpt lat="44.61232" lon="2.51532">
        <ele>386.59</ele>
        <time>2020-08-30T10:28:27Z</time>
      </trkpt>
      <trkpt lat="44.61236" lon="2.51518">
        <ele>388.03</ele>
        <time>2020-08-30T10:28:37Z</time>
      </trkpt>
      <trkpt lat="44.61235" lon="2.51508">
        <ele>388.51</ele>
        <time>2020-08-30T10:28:49Z</time>
      </trkpt>
      <trkpt lat="44.61236" lon="2.5149">
        <ele>387.07</ele>
        <time>2020-08-30T10:29:04Z</time>
      </trkpt>
      <trkpt lat="44.61234" lon="2.5146">
        <ele>387.07</ele>
        <time>2020-08-30T10:29:24Z</time>
      </trkpt>
      <trkpt lat="44.61238" lon="2.51435">
        <ele>386.59</ele>
        <time>2020-08-30T10:29:48Z</time>
      </trkpt>
      <trkpt lat="44.61228" lon="2.51401">
        <ele>388.03</ele>
        <time>2020-08-30T10:30:11Z</time>
      </trkpt>
      <trkpt lat="44.6123" lon="2.51375">
        <ele>388.99</ele>
        <time>2020-08-30T10:30:31Z</time>
      </trkpt>
      <trkpt lat="44.61236" lon="2.51364">
        <ele>389.95</ele>
        <time>2020-08-30T10:30:45Z</time>
      </trkpt>
      <trkpt lat="44.61242" lon="2.51348">
        <ele>391.87</ele>
        <time>2020-08-30T10:31:02Z</time>
      </trkpt>
      <trkpt lat="44.6125" lon="2.51332">
        <ele>393.32</ele>
        <time>2020-08-30T10:31:16Z</time>
      </trkpt>
      <trkpt lat="44.6126" lon="2.51318">
        <ele>393.32</ele>
        <time>2020-08-30T10:31:34Z</time>
      </trkpt>
      <trkpt lat="44.6126" lon="2.51296">
        <ele>393.32</ele>
        <time>2020-08-30T10:31:52Z</time>
      </trkpt>
      <trkpt lat="44.61255" lon="2.51272">
        <ele>393.32</ele>
        <time>2020-08-30T10:32:09Z</time>
      </trkpt>
      <trkpt lat="44.6125" lon="2.51253">
        <ele>393.8</ele>
        <time>2020-08-30T10:32:25Z</time>
      </trkpt>
      <trkpt lat="44.61244" lon="2.51226">
        <ele>393.32</ele>
        <time>2020-08-30T10:32:43Z</time>
      </trkpt>
      <trkpt lat="44.61243" lon="2.51199">
        <ele>393.8</ele>
        <time>2020-08-30T10:32:58Z</time>
      </trkpt>
      <trkpt lat="44.61246" lon="2.51172">
        <ele>394.28</ele>
        <time>2020-08-30T10:33:15Z</time>
      </trkpt>
      <trkpt lat="44.61247" lon="2.51169">
        <ele>394.28</ele>
        <time>2020-08-30T10:33:28Z</time>
      </trkpt>
      <trkpt lat="44.61251" lon="2.51157">
        <ele>394.28</ele>
        <time>2020-08-30T10:33:43Z</time>
      </trkpt>
      <trkpt lat="44.61255" lon="2.51143">
        <ele>394.76</ele>
        <time>2020-08-30T10:33:58Z</time>
      </trkpt>
      <trkpt lat="44.61263" lon="2.5112">
        <ele>394.76</ele>
        <time>2020-08-30T10:34:18Z</time>
      </trkpt>
      <trkpt lat="44.61271" lon="2.51079">
        <ele>395.24</ele>
        <time>2020-08-30T10:34:38Z</time>
      </trkpt>
      <trkpt lat="44.61279" lon="2.51069">
        <ele>395.72</ele>
        <time>2020-08-30T10:34:58Z</time>
      </trkpt>
      <trkpt lat="44.61277" lon="2.51073">
        <ele>395.72</ele>
        <time>2020-08-30T10:35:17Z</time>
      </trkpt>
      <trkpt lat="44.61277" lon="2.51071">
        <ele>395.72</ele>
        <time>2020-08-30T10:35:38Z</time>
      </trkpt>
      <trkpt lat="44.61278" lon="2.51072">
        <ele>395.72</ele>
        <time>2020-08-30T10:35:53Z</time>
      </trkpt>
      <trkpt lat="44.61278" lon="2.51072">
        <ele>395.72</ele>
        <time>2020-08-30T10:36:16Z</time>
      </trkpt>
      <trkpt lat="44.61276" lon="2.51073">
        <ele>395.72</ele>
        <time>2020-08-30T10:36:43Z</time>
      </trkpt>
      <trkpt lat="44.61271" lon="2.51059">
        <ele>394.76</ele>
        <time>2020-08-30T10:36:57Z</time>
      </trkpt>
      <trkpt lat="44.6127" lon="2.51057">
        <ele>394.76</ele>
        <time>2020-08-30T10:36:59Z</time>
      </trkpt>
      <trkpt lat="44.6126" lon="2.51039">
        <ele>392.36</ele>
        <time>2020-08-30T10:37:19Z</time>
      </trkpt>
      <trkpt lat="44.61253" lon="2.51015">
        <ele>391.87</ele>
        <time>2020-08-30T10:37:38Z</time>
      </trkpt>
      <trkpt lat="44.61246" lon="2.50993">
        <ele>390.43</ele>
        <time>2020-08-30T10:37:57Z</time>
      </trkpt>
      <trkpt lat="44.61246" lon="2.50992">
        <ele>390.43</ele>
        <time>2020-08-30T10:37:58Z</time>
      </trkpt>
      <trkpt lat="44.61241" lon="2.50964">
        <ele>388.99</ele>
        <time>2020-08-30T10:38:19Z</time>
      </trkpt>
      <trkpt lat="44.61237" lon="2.50951">
        <ele>388.51</ele>
        <time>2020-08-30T10:38:29Z</time>
      </trkpt>
      <trkpt lat="44.61225" lon="2.50942">
        <ele>387.55</ele>
        <time>2020-08-30T10:38:44Z</time>
      </trkpt>
      <trkpt lat="44.61211" lon="2.5093">
        <ele>387.55</ele>
        <time>2020-08-30T10:39:03Z</time>
      </trkpt>
      <trkpt lat="44.61207" lon="2.50926">
        <ele>387.55</ele>
        <time>2020-08-30T10:39:18Z</time>
      </trkpt>
      <trkpt lat="44.61204" lon="2.50929">
        <ele>387.55</ele>
        <time>2020-08-30T10:39:43Z</time>
      </trkpt>
      <trkpt lat="44.61202" lon="2.5093">
        <ele>387.55</ele>
        <time>2020-08-30T10:39:56Z</time>
      </trkpt>
      <trkpt lat="44.61205" lon="2.50921">
        <ele>387.55</ele>
        <time>2020-08-30T10:40:13Z</time>
      </trkpt>
      <trkpt lat="44.61199" lon="2.50919">
        <ele>388.51</ele>
        <time>2020-08-30T10:40:34Z</time>
      </trkpt>
      <trkpt lat="44.61205" lon="2.50939">
        <ele>388.51</ele>
        <time>2020-08-30T10:40:55Z</time>
      </trkpt>
      <trkpt lat="44.61206" lon="2.50947">
        <ele>388.51</ele>
        <time>2020-08-30T10:41:23Z</time>
      </trkpt>
      <trkpt lat="44.61208" lon="2.50949">
        <ele>387.55</ele>
        <time>2020-08-30T10:41:54Z</time>
      </trkpt>
      <trkpt lat="44.61207" lon="2.50947">
        <ele>387.55</ele>
        <time>2020-08-30T10:41:57Z</time>
      </trkpt>
      <trkpt lat="44.61198" lon="2.50949">
        <ele>387.55</ele>
        <time>2020-08-30T10:42:17Z</time>
      </trkpt>
      <trkpt lat="44.61196" lon="2.50955">
        <ele>387.55</ele>
        <time>2020-08-30T10:42:44Z</time>
      </trkpt>
      <trkpt lat="44.61199" lon="2.50924">
        <ele>388.03</ele>
        <time>2020-08-30T10:43:09Z</time>
      </trkpt>
      <trkpt lat="44.61209" lon="2.50926">
        <ele>387.07</ele>
        <time>2020-08-30T10:43:25Z</time>
      </trkpt>
      <trkpt lat="44.61211" lon="2.5093">
        <ele>387.07</ele>
        <time>2020-08-30T10:43:53Z</time>
      </trkpt>
      <trkpt lat="44.61209" lon="2.50927">
        <ele>387.07</ele>
        <time>2020-08-30T10:44:15Z</time>
      </trkpt>
      <trkpt lat="44.61208" lon="2.50927">
        <ele>387.07</ele>
        <time>2020-08-30T10:44:33Z</time>
      </trkpt>
      <trkpt lat="44.61205" lon="2.50931">
        <ele>387.07</ele>
        <time>2020-08-30T10:45:03Z</time>
      </trkpt>
      <trkpt lat="44.61205" lon="2.50929">
        <ele>386.59</ele>
        <time>2020-08-30T10:45:27Z</time>
      </trkpt>
      <trkpt lat="44.61205" lon="2.50931">
        <ele>387.07</ele>
        <time>2020-08-30T10:46:04Z</time>
      </trkpt>
      <trkpt lat="44.61203" lon="2.50931">
        <ele>387.07</ele>
        <time>2020-08-30T10:46:40Z</time>
      </trkpt>
      <trkpt lat="44.61208" lon="2.50927">
        <ele>387.07</ele>
        <time>2020-08-30T10:47:10Z</time>
      </trkpt>
      <trkpt lat="44.61206" lon="2.50929">
        <ele>387.07</ele>
        <time>2020-08-30T10:47:40Z</time>
      </trkpt>
      <trkpt lat="44.61199" lon="2.50931">
        <ele>387.55</ele>
        <time>2020-08-30T10:48:04Z</time>
      </trkpt>
      <trkpt lat="44.61198" lon="2.50937">
        <ele>387.55</ele>
        <time>2020-08-30T10:48:25Z</time>
      </trkpt>
      <trkpt lat="44.61202" lon="2.50934">
        <ele>387.55</ele>
        <time>2020-08-30T10:48:51Z</time>
      </trkpt>
      <trkpt lat="44.61203" lon="2.50932">
        <ele>387.55</ele>
        <time>2020-08-30T10:49:20Z</time>
      </trkpt>
      <trkpt lat="44.61203" lon="2.5093">
        <ele>387.55</ele>
        <time>2020-08-30T10:49:40Z</time>
      </trkpt>
      <trkpt lat="44.61202" lon="2.50933">
        <ele>388.03</ele>
        <time>2020-08-30T10:50:15Z</time>
      </trkpt>
      <trkpt lat="44.61207" lon="2.5093">
        <ele>388.03</ele>
        <time>2020-08-30T10:50:47Z</time>
      </trkpt>
      <trkpt lat="44.61198" lon="2.50934">
        <ele>388.03</ele>
        <time>2020-08-30T10:51:26Z</time>
      </trkpt>
      <trkpt lat="44.61204" lon="2.50929">
        <ele>388.03</ele>
        <time>2020-08-30T10:51:51Z</time>
      </trkpt>
      <trkpt lat="44.61206" lon="2.50927">
        <ele>388.51</ele>
        <time>2020-08-30T10:52:26Z</time>
      </trkpt>
      <trkpt lat="44.61208" lon="2.50926">
        <ele>389.47</ele>
        <time>2020-08-30T10:52:48Z</time>
      </trkpt>
      <trkpt lat="44.61208" lon="2.50924">
        <ele>389.47</ele>
        <time>2020-08-30T10:53:16Z</time>
      </trkpt>
      <trkpt lat="44.61207" lon="2.50926">
        <ele>389.47</ele>
        <time>2020-08-30T10:53:52Z</time>
      </trkpt>
      <trkpt lat="44.61203" lon="2.50929">
        <ele>389.47</ele>
        <time>2020-08-30T10:54:27Z</time>
      </trkpt>
      <trkpt lat="44.61205" lon="2.50927">
        <ele>389.47</ele>
        <time>2020-08-30T10:55:05Z</time>
      </trkpt>
      <trkpt lat="44.61203" lon="2.50929">
        <ele>389.47</ele>
        <time>2020-08-30T10:55:41Z</time>
      </trkpt>
      <trkpt lat="44.61203" lon="2.50927">
        <ele>389.47</ele>
        <time>2020-08-30T10:56:14Z</time>
      </trkpt>
      <trkpt lat="44.61205" lon="2.50927">
        <ele>389.47</ele>
        <time>2020-08-30T10:56:45Z</time>
      </trkpt>
      <trkpt lat="44.61204" lon="2.5093">
        <ele>389.47</ele>
        <time>2020-08-30T10:57:31Z</time>
      </trkpt>
      <trkpt lat="44.612" lon="2.5093">
        <ele>389.47</ele>
        <time>2020-08-30T10:58:07Z</time>
      </trkpt>
      <trkpt lat="44.61201" lon="2.50931">
        <ele>389.47</ele>
        <time>2020-08-30T10:58:49Z</time>
      </trkpt>
      <trkpt lat="44.612" lon="2.50933">
        <ele>388.99</ele>
        <time>2020-08-30T10:59:21Z</time>
      </trkpt>
      <trkpt lat="44.61202" lon="2.50929">
        <ele>388.99</ele>
        <time>2020-08-30T11:00:06Z</time>
      </trkpt>
      <trkpt lat="44.61204" lon="2.50929">
        <ele>388.99</ele>
        <time>2020-08-30T11:00:44Z</time>
      </trkpt>
      <trkpt lat="44.61205" lon="2.50927">
        <ele>388.99</ele>
        <time>2020-08-30T11:01:23Z</time>
      </trkpt>
      <trkpt lat="44.61205" lon="2.50928">
        <ele>388.99</ele>
        <time>2020-08-30T11:02:02Z</time>
      </trkpt>
      <trkpt lat="44.61207" lon="2.50927">
        <ele>388.51</ele>
        <time>2020-08-30T11:02:44Z</time>
      </trkpt>
      <trkpt lat="44.61207" lon="2.50926">
        <ele>388.99</ele>
        <time>2020-08-30T11:03:30Z</time>
      </trkpt>
      <trkpt lat="44.6121" lon="2.50924">
        <ele>388.51</ele>
        <time>2020-08-30T11:04:06Z</time>
      </trkpt>
      <trkpt lat="44.61208" lon="2.50924">
        <ele>388.51</ele>
        <time>2020-08-30T11:04:46Z</time>
      </trkpt>
      <trkpt lat="44.61206" lon="2.50927">
        <ele>388.51</ele>
        <time>2020-08-30T11:05:28Z</time>
      </trkpt>
      <trkpt lat="44.6121" lon="2.50924">
        <ele>388.51</ele>
        <time>2020-08-30T11:06:10Z</time>
      </trkpt>
      <trkpt lat="44.61208" lon="2.50925">
        <ele>388.51</ele>
        <time>2020-08-30T11:06:39Z</time>
      </trkpt>
      <trkpt lat="44.61202" lon="2.50928">
        <ele>388.03</ele>
        <time>2020-08-30T11:07:14Z</time>
      </trkpt>
      <trkpt lat="44.61206" lon="2.50928">
        <ele>388.03</ele>
        <time>2020-08-30T11:07:43Z</time>
      </trkpt>
      <trkpt lat="44.61203" lon="2.50931">
        <ele>388.03</ele>
        <time>2020-08-30T11:08:13Z</time>
      </trkpt>
      <trkpt lat="44.61205" lon="2.50929">
        <ele>388.03</ele>
        <time>2020-08-30T11:08:41Z</time>
      </trkpt>
      <trkpt lat="44.61209" lon="2.50928">
        <ele>388.03</ele>
        <time>2020-08-30T11:09:13Z</time>
      </trkpt>
      <trkpt lat="44.61209" lon="2.50927">
        <ele>388.03</ele>
        <time>2020-08-30T11:09:40Z</time>
      </trkpt>
      <trkpt lat="44.61208" lon="2.50927">
        <ele>388.03</ele>
        <time>2020-08-30T11:10:17Z</time>
      </trkpt>
      <trkpt lat="44.61211" lon="2.50926">
        <ele>388.03</ele>
        <time>2020-08-30T11:10:49Z</time>
      </trkpt>
      <trkpt lat="44.61213" lon="2.50923">
        <ele>388.03</ele>
        <time>2020-08-30T11:11:08Z</time>
      </trkpt>
      <trkpt lat="44.61219" lon="2.50919">
        <ele>388.03</ele>
        <time>2020-08-30T11:11:20Z</time>
      </trkpt>
      <trkpt lat="44.6121" lon="2.50923">
        <ele>388.03</ele>
        <time>2020-08-30T11:11:35Z</time>
      </trkpt>
      <trkpt lat="44.61207" lon="2.50926">
        <ele>388.03</ele>
        <time>2020-08-30T11:11:52Z</time>
      </trkpt>
      <trkpt lat="44.61206" lon="2.50927">
        <ele>388.03</ele>
        <time>2020-08-30T11:11:58Z</time>
      </trkpt>
      <trkpt lat="44.61204" lon="2.50928">
        <ele>388.03</ele>
        <time>2020-08-30T11:12:12Z</time>
      </trkpt>
      <trkpt lat="44.61204" lon="2.50927">
        <ele>388.03</ele>
        <time>2020-08-30T11:12:24Z</time>
      </trkpt>
      <trkpt lat="44.61202" lon="2.50928">
        <ele>388.03</ele>
        <time>2020-08-30T11:12:40Z</time>
      </trkpt>
      <trkpt lat="44.61204" lon="2.50927">
        <ele>387.55</ele>
        <time>2020-08-30T11:12:57Z</time>
      </trkpt>
      <trkpt lat="44.61205" lon="2.50926">
        <ele>387.55</ele>
        <time>2020-08-30T11:13:19Z</time>
      </trkpt>
      <trkpt lat="44.6121" lon="2.50925">
        <ele>387.55</ele>
        <time>2020-08-30T11:13:51Z</time>
      </trkpt>
      <trkpt lat="44.6122" lon="2.50919">
        <ele>387.07</ele>
        <time>2020-08-30T11:14:04Z</time>
      </trkpt>
      <trkpt lat="44.61211" lon="2.50921">
        <ele>387.07</ele>
        <time>2020-08-30T11:14:17Z</time>
      </trkpt>
      <trkpt lat="44.61209" lon="2.50923">
        <ele>387.07</ele>
        <time>2020-08-30T11:14:27Z</time>
      </trkpt>
      <trkpt lat="44.61205" lon="2.50923">
        <ele>387.07</ele>
        <time>2020-08-30T11:14:43Z</time>
      </trkpt>
      <trkpt lat="44.61196" lon="2.50926">
        <ele>387.07</ele>
        <time>2020-08-30T11:14:54Z</time>
      </trkpt>
      <trkpt lat="44.61183" lon="2.50932">
        <ele>386.59</ele>
        <time>2020-08-30T11:15:10Z</time>
      </trkpt>
      <trkpt lat="44.6118" lon="2.5095">
        <ele>385.15</ele>
        <time>2020-08-30T11:15:26Z</time>
      </trkpt>
      <trkpt lat="44.61183" lon="2.50963">
        <ele>385.15</ele>
        <time>2020-08-30T11:15:40Z</time>
      </trkpt>
      <trkpt lat="44.6118" lon="2.50968">
        <ele>384.66</ele>
        <time>2020-08-30T11:15:54Z</time>
      </trkpt>
      <trkpt lat="44.61178" lon="2.50965">
        <ele>384.18</ele>
        <time>2020-08-30T11:16:19Z</time>
      </trkpt>
      <trkpt lat="44.61179" lon="2.50969">
        <ele>384.18</ele>
        <time>2020-08-30T11:16:36Z</time>
      </trkpt>
      <trkpt lat="44.61179" lon="2.50962">
        <ele>384.18</ele>
        <time>2020-08-30T11:17:01Z</time>
      </trkpt>
      <trkpt lat="44.6118" lon="2.50955">
        <ele>384.18</ele>
        <time>2020-08-30T11:17:15Z</time>
      </trkpt>
      <trkpt lat="44.61183" lon="2.5094">
        <ele>386.11</ele>
        <time>2020-08-30T11:17:28Z</time>
      </trkpt>
      <trkpt lat="44.61187" lon="2.50935">
        <ele>386.59</ele>
        <time>2020-08-30T11:17:34Z</time>
      </trkpt>
      <trkpt lat="44.61197" lon="2.50924">
        <ele>387.55</ele>
        <time>2020-08-30T11:17:46Z</time>
      </trkpt>
      <trkpt lat="44.61215" lon="2.50923">
        <ele>388.03</ele>
        <time>2020-08-30T11:18:03Z</time>
      </trkpt>
      <trkpt lat="44.6123" lon="2.50931">
        <ele>388.03</ele>
        <time>2020-08-30T11:18:19Z</time>
      </trkpt>
      <trkpt lat="44.61228" lon="2.50941">
        <ele>388.03</ele>
        <time>2020-08-30T11:18:35Z</time>
      </trkpt>
      <trkpt lat="44.61228" lon="2.50941">
        <ele>388.03</ele>
        <time>2020-08-30T11:19:04Z</time>
      </trkpt>
      <trkpt lat="44.61223" lon="2.50941">
        <ele>388.51</ele>
        <time>2020-08-30T11:19:31Z</time>
      </trkpt>
      <trkpt lat="44.61216" lon="2.50936">
        <ele>388.51</ele>
        <time>2020-08-30T11:19:52Z</time>
      </trkpt>
      <trkpt lat="44.61211" lon="2.50932">
        <ele>388.51</ele>
        <time>2020-08-30T11:19:59Z</time>
      </trkpt>
      <trkpt lat="44.61197" lon="2.50924">
        <ele>388.99</ele>
        <time>2020-08-30T11:20:14Z</time>
      </trkpt>
      <trkpt lat="44.61191" lon="2.50925">
        <ele>388.99</ele>
        <time>2020-08-30T11:20:20Z</time>
      </trkpt>
      <trkpt lat="44.61189" lon="2.50926">
        <ele>387.55</ele>
        <time>2020-08-30T11:20:22Z</time>
      </trkpt>
      <trkpt lat="44.61183" lon="2.5093">
        <ele>387.07</ele>
        <time>2020-08-30T11:20:28Z</time>
      </trkpt>
      <trkpt lat="44.6118" lon="2.50948">
        <ele>386.59</ele>
        <time>2020-08-30T11:20:44Z</time>
      </trkpt>
      <trkpt lat="44.61182" lon="2.50957">
        <ele>385.63</ele>
        <time>2020-08-30T11:21:00Z</time>
      </trkpt>
      <trkpt lat="44.61184" lon="2.50974">
        <ele>384.66</ele>
        <time>2020-08-30T11:21:11Z</time>
      </trkpt>
      <trkpt lat="44.61189" lon="2.50991">
        <ele>383.7</ele>
        <time>2020-08-30T11:21:24Z</time>
      </trkpt>
      <trkpt lat="44.61194" lon="2.51003">
        <ele>383.22</ele>
        <time>2020-08-30T11:21:38Z</time>
      </trkpt>
      <trkpt lat="44.61196" lon="2.51006">
        <ele>383.22</ele>
        <time>2020-08-30T11:21:52Z</time>
      </trkpt>
      <trkpt lat="44.61197" lon="2.51012">
        <ele>382.74</ele>
        <time>2020-08-30T11:22:15Z</time>
      </trkpt>
      <trkpt lat="44.61193" lon="2.51012">
        <ele>382.74</ele>
        <time>2020-08-30T11:22:30Z</time>
      </trkpt>
      <trkpt lat="44.61192" lon="2.51013">
        <ele>382.74</ele>
        <time>2020-08-30T11:22:31Z</time>
      </trkpt>
      <trkpt lat="44.61186" lon="2.51013">
        <ele>382.26</ele>
        <time>2020-08-30T11:22:37Z</time>
      </trkpt>
      <trkpt lat="44.61175" lon="2.51001">
        <ele>382.26</ele>
        <time>2020-08-30T11:22:51Z</time>
      </trkpt>
      <trkpt lat="44.61163" lon="2.50987">
        <ele>380.34</ele>
        <time>2020-08-30T11:23:05Z</time>
      </trkpt>
      <trkpt lat="44.61152" lon="2.50969">
        <ele>378.9</ele>
        <time>2020-08-30T11:23:22Z</time>
      </trkpt>
      <trkpt lat="44.61137" lon="2.50948">
        <ele>377.94</ele>
        <time>2020-08-30T11:23:40Z</time>
      </trkpt>
      <trkpt lat="44.61129" lon="2.50943">
        <ele>377.94</ele>
        <time>2020-08-30T11:23:57Z</time>
      </trkpt>
      <trkpt lat="44.61128" lon="2.50944">
        <ele>377.45</ele>
        <time>2020-08-30T11:24:21Z</time>
      </trkpt>
      <trkpt lat="44.61129" lon="2.50945">
        <ele>377.45</ele>
        <time>2020-08-30T11:24:41Z</time>
      </trkpt>
      <trkpt lat="44.61129" lon="2.50941">
        <ele>377.45</ele>
        <time>2020-08-30T11:25:04Z</time>
      </trkpt>
      <trkpt lat="44.6111" lon="2.50924">
        <ele>375.53</ele>
        <time>2020-08-30T11:25:26Z</time>
      </trkpt>
      <trkpt lat="44.61091" lon="2.5091">
        <ele>372.65</ele>
        <time>2020-08-30T11:25:48Z</time>
      </trkpt>
      <trkpt lat="44.61077" lon="2.50893">
        <ele>369.76</ele>
        <time>2020-08-30T11:26:07Z</time>
      </trkpt>
      <trkpt lat="44.61058" lon="2.50871">
        <ele>367.36</ele>
        <time>2020-08-30T11:26:31Z</time>
      </trkpt>
      <trkpt lat="44.6105" lon="2.50864">
        <ele>365.92</ele>
        <time>2020-08-30T11:26:48Z</time>
      </trkpt>
      <trkpt lat="44.61047" lon="2.50853">
        <ele>364.48</ele>
        <time>2020-08-30T11:27:01Z</time>
      </trkpt>
      <trkpt lat="44.61027" lon="2.5084">
        <ele>361.11</ele>
        <time>2020-08-30T11:27:22Z</time>
      </trkpt>
      <trkpt lat="44.61008" lon="2.50834">
        <ele>359.67</ele>
        <time>2020-08-30T11:27:44Z</time>
      </trkpt>
      <trkpt lat="44.60995" lon="2.50828">
        <ele>359.19</ele>
        <time>2020-08-30T11:28:01Z</time>
      </trkpt>
      <trkpt lat="44.60989" lon="2.50826">
        <ele>359.19</ele>
        <time>2020-08-30T11:28:17Z</time>
      </trkpt>
      <trkpt lat="44.60979" lon="2.50842">
        <ele>359.19</ele>
        <time>2020-08-30T11:28:33Z</time>
      </trkpt>
      <trkpt lat="44.60977" lon="2.50849">
        <ele>360.15</ele>
        <time>2020-08-30T11:28:40Z</time>
      </trkpt>
      <trkpt lat="44.60971" lon="2.50864">
        <ele>362.07</ele>
        <time>2020-08-30T11:28:57Z</time>
      </trkpt>
      <trkpt lat="44.60968" lon="2.50875">
        <ele>364.48</ele>
        <time>2020-08-30T11:29:14Z</time>
      </trkpt>
      <trkpt lat="44.60964" lon="2.50879">
        <ele>366.4</ele>
        <time>2020-08-30T11:29:29Z</time>
      </trkpt>
      <trkpt lat="44.60964" lon="2.50891">
        <ele>367.84</ele>
        <time>2020-08-30T11:29:51Z</time>
      </trkpt>
      <trkpt lat="44.60965" lon="2.50906">
        <ele>370.24</ele>
        <time>2020-08-30T11:30:08Z</time>
      </trkpt>
      <trkpt lat="44.60953" lon="2.50915">
        <ele>372.17</ele>
        <time>2020-08-30T11:30:27Z</time>
      </trkpt>
      <trkpt lat="44.60947" lon="2.50919">
        <ele>374.57</ele>
        <time>2020-08-30T11:30:44Z</time>
      </trkpt>
      <trkpt lat="44.60944" lon="2.5093">
        <ele>375.53</ele>
        <time>2020-08-30T11:31:01Z</time>
      </trkpt>
      <trkpt lat="44.6094" lon="2.5094">
        <ele>377.45</ele>
        <time>2020-08-30T11:31:17Z</time>
      </trkpt>
      <trkpt lat="44.60937" lon="2.50952">
        <ele>379.38</ele>
        <time>2020-08-30T11:31:31Z</time>
      </trkpt>
      <trkpt lat="44.60926" lon="2.50963">
        <ele>379.86</ele>
        <time>2020-08-30T11:31:47Z</time>
      </trkpt>
      <trkpt lat="44.60916" lon="2.50962">
        <ele>380.82</ele>
        <time>2020-08-30T11:31:59Z</time>
      </trkpt>
      <trkpt lat="44.60908" lon="2.50948">
        <ele>382.26</ele>
        <time>2020-08-30T11:32:13Z</time>
      </trkpt>
      <trkpt lat="44.60913" lon="2.50932">
        <ele>382.26</ele>
        <time>2020-08-30T11:32:31Z</time>
      </trkpt>
      <trkpt lat="44.60914" lon="2.50932">
        <ele>381.78</ele>
        <time>2020-08-30T11:32:53Z</time>
      </trkpt>
      <trkpt lat="44.60913" lon="2.5092">
        <ele>381.78</ele>
        <time>2020-08-30T11:33:22Z</time>
      </trkpt>
      <trkpt lat="44.60908" lon="2.50903">
        <ele>384.18</ele>
        <time>2020-08-30T11:33:41Z</time>
      </trkpt>
      <trkpt lat="44.60904" lon="2.50885">
        <ele>385.63</ele>
        <time>2020-08-30T11:33:59Z</time>
      </trkpt>
      <trkpt lat="44.609" lon="2.50873">
        <ele>386.59</ele>
        <time>2020-08-30T11:34:08Z</time>
      </trkpt>
      <trkpt lat="44.60896" lon="2.50857">
        <ele>387.07</ele>
        <time>2020-08-30T11:34:25Z</time>
      </trkpt>
      <trkpt lat="44.60892" lon="2.50845">
        <ele>387.55</ele>
        <time>2020-08-30T11:34:46Z</time>
      </trkpt>
      <trkpt lat="44.60891" lon="2.50842">
        <ele>387.55</ele>
        <time>2020-08-30T11:34:48Z</time>
      </trkpt>
      <trkpt lat="44.60887" lon="2.50832">
        <ele>388.03</ele>
        <time>2020-08-30T11:35:09Z</time>
      </trkpt>
      <trkpt lat="44.60884" lon="2.50822">
        <ele>388.03</ele>
        <time>2020-08-30T11:35:28Z</time>
      </trkpt>
      <trkpt lat="44.60884" lon="2.50817">
        <ele>388.03</ele>
        <time>2020-08-30T11:36:06Z</time>
      </trkpt>
      <trkpt lat="44.60882" lon="2.50817">
        <ele>388.99</ele>
        <time>2020-08-30T11:36:38Z</time>
      </trkpt>
      <trkpt lat="44.60877" lon="2.508">
        <ele>389.95</ele>
        <time>2020-08-30T11:36:56Z</time>
      </trkpt>
      <trkpt lat="44.60875" lon="2.50792">
        <ele>390.43</ele>
        <time>2020-08-30T11:37:26Z</time>
      </trkpt>
      <trkpt lat="44.60877" lon="2.508">
        <ele>390.43</ele>
        <time>2020-08-30T11:37:50Z</time>
      </trkpt>
      <trkpt lat="44.60877" lon="2.50794">
        <ele>390.43</ele>
        <time>2020-08-30T11:38:09Z</time>
      </trkpt>
      <trkpt lat="44.60876" lon="2.50792">
        <ele>390.43</ele>
        <time>2020-08-30T11:38:48Z</time>
      </trkpt>
      <trkpt lat="44.60876" lon="2.50793">
        <ele>390.91</ele>
        <time>2020-08-30T11:39:26Z</time>
      </trkpt>
      <trkpt lat="44.60877" lon="2.50793">
        <ele>390.91</ele>
        <time>2020-08-30T11:40:03Z</time>
      </trkpt>
      <trkpt lat="44.60873" lon="2.5078">
        <ele>391.39</ele>
        <time>2020-08-30T11:40:26Z</time>
      </trkpt>
      <trkpt lat="44.60868" lon="2.50756">
        <ele>392.84</ele>
        <time>2020-08-30T11:40:42Z</time>
      </trkpt>
      <trkpt lat="44.60867" lon="2.50742">
        <ele>393.8</ele>
        <time>2020-08-30T11:40:56Z</time>
      </trkpt>
      <trkpt lat="44.60869" lon="2.50722">
        <ele>396.2</ele>
        <time>2020-08-30T11:41:13Z</time>
      </trkpt>
      <trkpt lat="44.60869" lon="2.50706">
        <ele>399.08</ele>
        <time>2020-08-30T11:41:32Z</time>
      </trkpt>
      <trkpt lat="44.60871" lon="2.50687">
        <ele>400.05</ele>
        <time>2020-08-30T11:41:48Z</time>
      </trkpt>
      <trkpt lat="44.60873" lon="2.50663">
        <ele>401.01</ele>
        <time>2020-08-30T11:42:05Z</time>
      </trkpt>
      <trkpt lat="44.60873" lon="2.50654">
        <ele>401.01</ele>
        <time>2020-08-30T11:42:11Z</time>
      </trkpt>
      <trkpt lat="44.60869" lon="2.50632">
        <ele>401.01</ele>
        <time>2020-08-30T11:42:27Z</time>
      </trkpt>
      <trkpt lat="44.60862" lon="2.50605">
        <ele>401.49</ele>
        <time>2020-08-30T11:42:47Z</time>
      </trkpt>
      <trkpt lat="44.60855" lon="2.50584">
        <ele>401.97</ele>
        <time>2020-08-30T11:43:03Z</time>
      </trkpt>
      <trkpt lat="44.60845" lon="2.50559">
        <ele>402.93</ele>
        <time>2020-08-30T11:43:22Z</time>
      </trkpt>
      <trkpt lat="44.60843" lon="2.50538">
        <ele>404.37</ele>
        <time>2020-08-30T11:43:39Z</time>
      </trkpt>
      <trkpt lat="44.60841" lon="2.50521">
        <ele>404.37</ele>
        <time>2020-08-30T11:43:55Z</time>
      </trkpt>
      <trkpt lat="44.60839" lon="2.50512">
        <ele>404.85</ele>
        <time>2020-08-30T11:44:03Z</time>
      </trkpt>
      <trkpt lat="44.60838" lon="2.50505">
        <ele>405.81</ele>
        <time>2020-08-30T11:44:08Z</time>
      </trkpt>
      <trkpt lat="44.60832" lon="2.5048">
        <ele>406.29</ele>
        <time>2020-08-30T11:44:24Z</time>
      </trkpt>
      <trkpt lat="44.60829" lon="2.50464">
        <ele>407.74</ele>
        <time>2020-08-30T11:44:38Z</time>
      </trkpt>
      <trkpt lat="44.60827" lon="2.50459">
        <ele>408.22</ele>
        <time>2020-08-30T11:44:43Z</time>
      </trkpt>
      <trkpt lat="44.60823" lon="2.50448">
        <ele>409.18</ele>
        <time>2020-08-30T11:44:50Z</time>
      </trkpt>
      <trkpt lat="44.60815" lon="2.50433">
        <ele>410.14</ele>
        <time>2020-08-30T11:45:06Z</time>
      </trkpt>
      <trkpt lat="44.60803" lon="2.5042">
        <ele>410.14</ele>
        <time>2020-08-30T11:45:20Z</time>
      </trkpt>
      <trkpt lat="44.6079" lon="2.5041">
        <ele>411.1</ele>
        <time>2020-08-30T11:45:37Z</time>
      </trkpt>
      <trkpt lat="44.60786" lon="2.50405">
        <ele>411.58</ele>
        <time>2020-08-30T11:45:43Z</time>
      </trkpt>
      <trkpt lat="44.60769" lon="2.50391">
        <ele>413.02</ele>
        <time>2020-08-30T11:46:00Z</time>
      </trkpt>
      <trkpt lat="44.60758" lon="2.50381">
        <ele>413.5</ele>
        <time>2020-08-30T11:46:15Z</time>
      </trkpt>
      <trkpt lat="44.60743" lon="2.50371">
        <ele>414.95</ele>
        <time>2020-08-30T11:46:31Z</time>
      </trkpt>
      <trkpt lat="44.6073" lon="2.50363">
        <ele>415.43</ele>
        <time>2020-08-30T11:46:46Z</time>
      </trkpt>
      <trkpt lat="44.60712" lon="2.50356">
        <ele>413.5</ele>
        <time>2020-08-30T11:47:07Z</time>
      </trkpt>
      <trkpt lat="44.60698" lon="2.50348">
        <ele>413.02</ele>
        <time>2020-08-30T11:47:23Z</time>
      </trkpt>
      <trkpt lat="44.60694" lon="2.5033">
        <ele>410.62</ele>
        <time>2020-08-30T11:47:40Z</time>
      </trkpt>
      <trkpt lat="44.6069" lon="2.5031">
        <ele>408.22</ele>
        <time>2020-08-30T11:47:58Z</time>
      </trkpt>
      <trkpt lat="44.60692" lon="2.50289">
        <ele>405.81</ele>
        <time>2020-08-30T11:48:15Z</time>
      </trkpt>
      <trkpt lat="44.60694" lon="2.50269">
        <ele>404.85</ele>
        <time>2020-08-30T11:48:30Z</time>
      </trkpt>
      <trkpt lat="44.60687" lon="2.50256">
        <ele>403.89</ele>
        <time>2020-08-30T11:48:44Z</time>
      </trkpt>
      <trkpt lat="44.60666" lon="2.50249">
        <ele>403.41</ele>
        <time>2020-08-30T11:49:01Z</time>
      </trkpt>
      <trkpt lat="44.60654" lon="2.50242">
        <ele>402.93</ele>
        <time>2020-08-30T11:49:16Z</time>
      </trkpt>
      <trkpt lat="44.60647" lon="2.50231">
        <ele>402.45</ele>
        <time>2020-08-30T11:49:34Z</time>
      </trkpt>
      <trkpt lat="44.60642" lon="2.5023">
        <ele>403.89</ele>
        <time>2020-08-30T11:49:40Z</time>
      </trkpt>
      <trkpt lat="44.60635" lon="2.50235">
        <ele>406.29</ele>
        <time>2020-08-30T11:49:54Z</time>
      </trkpt>
      <trkpt lat="44.6063" lon="2.50234">
        <ele>407.26</ele>
        <time>2020-08-30T11:50:05Z</time>
      </trkpt>
      <trkpt lat="44.6063" lon="2.50214">
        <ele>407.74</ele>
        <time>2020-08-30T11:50:20Z</time>
      </trkpt>
      <trkpt lat="44.6063" lon="2.5021">
        <ele>407.74</ele>
        <time>2020-08-30T11:50:23Z</time>
      </trkpt>
      <trkpt lat="44.60624" lon="2.50191">
        <ele>408.22</ele>
        <time>2020-08-30T11:50:37Z</time>
      </trkpt>
      <trkpt lat="44.60624" lon="2.50185">
        <ele>408.7</ele>
        <time>2020-08-30T11:50:42Z</time>
      </trkpt>
      <trkpt lat="44.60624" lon="2.50167">
        <ele>409.18</ele>
        <time>2020-08-30T11:50:56Z</time>
      </trkpt>
      <trkpt lat="44.60625" lon="2.50157">
        <ele>409.66</ele>
        <time>2020-08-30T11:51:03Z</time>
      </trkpt>
      <trkpt lat="44.60625" lon="2.50138">
        <ele>409.66</ele>
        <time>2020-08-30T11:51:18Z</time>
      </trkpt>
      <trkpt lat="44.60627" lon="2.50118">
        <ele>410.14</ele>
        <time>2020-08-30T11:51:34Z</time>
      </trkpt>
      <trkpt lat="44.60624" lon="2.50098">
        <ele>410.62</ele>
        <time>2020-08-30T11:51:48Z</time>
      </trkpt>
      <trkpt lat="44.60621" lon="2.50084">
        <ele>410.62</ele>
        <time>2020-08-30T11:51:57Z</time>
      </trkpt>
      <trkpt lat="44.60612" lon="2.50066">
        <ele>411.58</ele>
        <time>2020-08-30T11:52:12Z</time>
      </trkpt>
      <trkpt lat="44.606" lon="2.50053">
        <ele>412.06</ele>
        <time>2020-08-30T11:52:26Z</time>
      </trkpt>
      <trkpt lat="44.60594" lon="2.50049">
        <ele>412.54</ele>
        <time>2020-08-30T11:52:32Z</time>
      </trkpt>
      <trkpt lat="44.60583" lon="2.50043">
        <ele>413.02</ele>
        <time>2020-08-30T11:52:43Z</time>
      </trkpt>
      <trkpt lat="44.60565" lon="2.50035">
        <ele>413.02</ele>
        <time>2020-08-30T11:52:58Z</time>
      </trkpt>
      <trkpt lat="44.60545" lon="2.50027">
        <ele>413.5</ele>
        <time>2020-08-30T11:53:18Z</time>
      </trkpt>
      <trkpt lat="44.60535" lon="2.50012">
        <ele>413.98</ele>
        <time>2020-08-30T11:53:33Z</time>
      </trkpt>
      <trkpt lat="44.60521" lon="2.50002">
        <ele>414.47</ele>
        <time>2020-08-30T11:53:47Z</time>
      </trkpt>
      <trkpt lat="44.60521" lon="2.50004">
        <ele>414.47</ele>
        <time>2020-08-30T11:53:59Z</time>
      </trkpt>
      <trkpt lat="44.60518" lon="2.50001">
        <ele>414.47</ele>
        <time>2020-08-30T11:54:02Z</time>
      </trkpt>
      <trkpt lat="44.60509" lon="2.49993">
        <ele>414.47</ele>
        <time>2020-08-30T11:54:13Z</time>
      </trkpt>
      <trkpt lat="44.60497" lon="2.49978">
        <ele>414.47</ele>
        <time>2020-08-30T11:54:27Z</time>
      </trkpt>
      <trkpt lat="44.60489" lon="2.49962">
        <ele>414.95</ele>
        <time>2020-08-30T11:54:40Z</time>
      </trkpt>
      <trkpt lat="44.60484" lon="2.49929">
        <ele>414.95</ele>
        <time>2020-08-30T11:54:57Z</time>
      </trkpt>
      <trkpt lat="44.6048" lon="2.49902">
        <ele>415.43</ele>
        <time>2020-08-30T11:55:14Z</time>
      </trkpt>
      <trkpt lat="44.60478" lon="2.49879">
        <ele>415.43</ele>
        <time>2020-08-30T11:55:30Z</time>
      </trkpt>
      <trkpt lat="44.60478" lon="2.49857">
        <ele>415.91</ele>
        <time>2020-08-30T11:55:48Z</time>
      </trkpt>
      <trkpt lat="44.60481" lon="2.49853">
        <ele>416.39</ele>
        <time>2020-08-30T11:56:12Z</time>
      </trkpt>
      <trkpt lat="44.60481" lon="2.49856">
        <ele>416.39</ele>
        <time>2020-08-30T11:56:39Z</time>
      </trkpt>
      <trkpt lat="44.60479" lon="2.49855">
        <ele>416.39</ele>
        <time>2020-08-30T11:56:58Z</time>
      </trkpt>
      <trkpt lat="44.60477" lon="2.49855">
        <ele>416.39</ele>
        <time>2020-08-30T11:57:30Z</time>
      </trkpt>
      <trkpt lat="44.60474" lon="2.49846">
        <ele>416.39</ele>
        <time>2020-08-30T11:58:01Z</time>
      </trkpt>
      <trkpt lat="44.60475" lon="2.49861">
        <ele>415.43</ele>
        <time>2020-08-30T11:58:29Z</time>
      </trkpt>
      <trkpt lat="44.60475" lon="2.49864">
        <ele>415.43</ele>
        <time>2020-08-30T11:58:55Z</time>
      </trkpt>
      <trkpt lat="44.60477" lon="2.49864">
        <ele>415.91</ele>
        <time>2020-08-30T11:59:26Z</time>
      </trkpt>
      <trkpt lat="44.60475" lon="2.49862">
        <ele>415.91</ele>
        <time>2020-08-30T11:59:58Z</time>
      </trkpt>
      <trkpt lat="44.60475" lon="2.49866">
        <ele>415.43</ele>
        <time>2020-08-30T12:00:36Z</time>
      </trkpt>
      <trkpt lat="44.60477" lon="2.49866">
        <ele>415.91</ele>
        <time>2020-08-30T12:01:09Z</time>
      </trkpt>
      <trkpt lat="44.60479" lon="2.4986">
        <ele>415.91</ele>
        <time>2020-08-30T12:01:33Z</time>
      </trkpt>
      <trkpt lat="44.60485" lon="2.4986">
        <ele>415.91</ele>
        <time>2020-08-30T12:02:01Z</time>
      </trkpt>
      <trkpt lat="44.60481" lon="2.49858">
        <ele>415.91</ele>
        <time>2020-08-30T12:02:38Z</time>
      </trkpt>
      <trkpt lat="44.6048" lon="2.49855">
        <ele>416.39</ele>
        <time>2020-08-30T12:03:12Z</time>
      </trkpt>
      <trkpt lat="44.60478" lon="2.49854">
        <ele>416.39</ele>
        <time>2020-08-30T12:03:46Z</time>
      </trkpt>
      <trkpt lat="44.60474" lon="2.49856">
        <ele>416.39</ele>
        <time>2020-08-30T12:04:18Z</time>
      </trkpt>
      <trkpt lat="44.60477" lon="2.49859">
        <ele>415.91</ele>
        <time>2020-08-30T12:04:49Z</time>
      </trkpt>
      <trkpt lat="44.60478" lon="2.49864">
        <ele>415.91</ele>
        <time>2020-08-30T12:05:27Z</time>
      </trkpt>
      <trkpt lat="44.60479" lon="2.49859">
        <ele>415.91</ele>
        <time>2020-08-30T12:06:05Z</time>
      </trkpt>
      <trkpt lat="44.60482" lon="2.49841">
        <ele>415.91</ele>
        <time>2020-08-30T12:06:20Z</time>
      </trkpt>
      <trkpt lat="44.60481" lon="2.49818">
        <ele>415.91</ele>
        <time>2020-08-30T12:06:37Z</time>
      </trkpt>
      <trkpt lat="44.60478" lon="2.49788">
        <ele>415.43</ele>
        <time>2020-08-30T12:06:57Z</time>
      </trkpt>
      <trkpt lat="44.60474" lon="2.49762">
        <ele>414.95</ele>
        <time>2020-08-30T12:07:18Z</time>
      </trkpt>
      <trkpt lat="44.6048" lon="2.49734">
        <ele>414.95</ele>
        <time>2020-08-30T12:07:38Z</time>
      </trkpt>
      <trkpt lat="44.60482" lon="2.49727">
        <ele>414.47</ele>
        <time>2020-08-30T12:07:44Z</time>
      </trkpt>
      <trkpt lat="44.60484" lon="2.49724">
        <ele>414.47</ele>
        <time>2020-08-30T12:07:46Z</time>
      </trkpt>
      <trkpt lat="44.60495" lon="2.49691">
        <ele>413.5</ele>
        <time>2020-08-30T12:08:05Z</time>
      </trkpt>
      <trkpt lat="44.60507" lon="2.49661">
        <ele>413.02</ele>
        <time>2020-08-30T12:08:22Z</time>
      </trkpt>
      <trkpt lat="44.60512" lon="2.49642">
        <ele>412.54</ele>
        <time>2020-08-30T12:08:39Z</time>
      </trkpt>
      <trkpt lat="44.60515" lon="2.4962">
        <ele>412.54</ele>
        <time>2020-08-30T12:08:57Z</time>
      </trkpt>
      <trkpt lat="44.60515" lon="2.49599">
        <ele>413.98</ele>
        <time>2020-08-30T12:09:14Z</time>
      </trkpt>
      <trkpt lat="44.60507" lon="2.49584">
        <ele>414.95</ele>
        <time>2020-08-30T12:09:29Z</time>
      </trkpt>
      <trkpt lat="44.605" lon="2.49567">
        <ele>415.91</ele>
        <time>2020-08-30T12:09:43Z</time>
      </trkpt>
      <trkpt lat="44.60503" lon="2.49549">
        <ele>418.31</ele>
        <time>2020-08-30T12:09:58Z</time>
      </trkpt>
      <trkpt lat="44.60506" lon="2.49534">
        <ele>420.71</ele>
        <time>2020-08-30T12:10:15Z</time>
      </trkpt>
      <trkpt lat="44.60505" lon="2.49522">
        <ele>422.16</ele>
        <time>2020-08-30T12:10:30Z</time>
      </trkpt>
      <trkpt lat="44.60505" lon="2.49513">
        <ele>423.6</ele>
        <time>2020-08-30T12:10:44Z</time>
      </trkpt>
      <trkpt lat="44.60506" lon="2.49503">
        <ele>424.56</ele>
        <time>2020-08-30T12:10:57Z</time>
      </trkpt>
      <trkpt lat="44.60507" lon="2.49484">
        <ele>426.96</ele>
        <time>2020-08-30T12:11:13Z</time>
      </trkpt>
      <trkpt lat="44.60506" lon="2.49471">
        <ele>427.92</ele>
        <time>2020-08-30T12:11:25Z</time>
      </trkpt>
      <trkpt lat="44.60503" lon="2.49456">
        <ele>430.33</ele>
        <time>2020-08-30T12:11:44Z</time>
      </trkpt>
      <trkpt lat="44.60496" lon="2.49442">
        <ele>432.73</ele>
        <time>2020-08-30T12:12:02Z</time>
      </trkpt>
      <trkpt lat="44.60492" lon="2.49431">
        <ele>434.65</ele>
        <time>2020-08-30T12:12:19Z</time>
      </trkpt>
      <trkpt lat="44.60495" lon="2.49415">
        <ele>436.58</ele>
        <time>2020-08-30T12:12:37Z</time>
      </trkpt>
      <trkpt lat="44.60497" lon="2.49396">
        <ele>438.5</ele>
        <time>2020-08-30T12:12:57Z</time>
      </trkpt>
      <trkpt lat="44.60495" lon="2.49377">
        <ele>440.9</ele>
        <time>2020-08-30T12:13:14Z</time>
      </trkpt>
      <trkpt lat="44.60493" lon="2.49361">
        <ele>442.34</ele>
        <time>2020-08-30T12:13:30Z</time>
      </trkpt>
      <trkpt lat="44.60491" lon="2.49349">
        <ele>444.27</ele>
        <time>2020-08-30T12:13:45Z</time>
      </trkpt>
      <trkpt lat="44.60487" lon="2.49334">
        <ele>445.71</ele>
        <time>2020-08-30T12:14:00Z</time>
      </trkpt>
      <trkpt lat="44.60478" lon="2.49315">
        <ele>447.15</ele>
        <time>2020-08-30T12:14:18Z</time>
      </trkpt>
      <trkpt lat="44.60474" lon="2.49304">
        <ele>449.07</ele>
        <time>2020-08-30T12:14:32Z</time>
      </trkpt>
      <trkpt lat="44.60469" lon="2.49292">
        <ele>451</ele>
        <time>2020-08-30T12:14:47Z</time>
      </trkpt>
      <trkpt lat="44.60465" lon="2.49281">
        <ele>451.48</ele>
        <time>2020-08-30T12:15:05Z</time>
      </trkpt>
      <trkpt lat="44.60457" lon="2.49263">
        <ele>453.4</ele>
        <time>2020-08-30T12:15:21Z</time>
      </trkpt>
      <trkpt lat="44.60451" lon="2.49245">
        <ele>454.36</ele>
        <time>2020-08-30T12:15:37Z</time>
      </trkpt>
      <trkpt lat="44.60453" lon="2.49227">
        <ele>456.28</ele>
        <time>2020-08-30T12:15:55Z</time>
      </trkpt>
      <trkpt lat="44.60449" lon="2.4921">
        <ele>457.72</ele>
        <time>2020-08-30T12:16:11Z</time>
      </trkpt>
      <trkpt lat="44.60442" lon="2.49205">
        <ele>459.65</ele>
        <time>2020-08-30T12:16:24Z</time>
      </trkpt>
      <trkpt lat="44.60431" lon="2.49196">
        <ele>462.53</ele>
        <time>2020-08-30T12:16:43Z</time>
      </trkpt>
      <trkpt lat="44.60422" lon="2.49186">
        <ele>464.45</ele>
        <time>2020-08-30T12:16:57Z</time>
      </trkpt>
      <trkpt lat="44.60419" lon="2.49179">
        <ele>465.42</ele>
        <time>2020-08-30T12:17:04Z</time>
      </trkpt>
      <trkpt lat="44.60414" lon="2.49163">
        <ele>467.34</ele>
        <time>2020-08-30T12:17:19Z</time>
      </trkpt>
      <trkpt lat="44.6041" lon="2.49148">
        <ele>469.26</ele>
        <time>2020-08-30T12:17:35Z</time>
      </trkpt>
      <trkpt lat="44.60413" lon="2.49137">
        <ele>471.18</ele>
        <time>2020-08-30T12:17:48Z</time>
      </trkpt>
      <trkpt lat="44.60418" lon="2.49121">
        <ele>473.11</ele>
        <time>2020-08-30T12:18:05Z</time>
      </trkpt>
      <trkpt lat="44.60421" lon="2.49108">
        <ele>474.07</ele>
        <time>2020-08-30T12:18:19Z</time>
      </trkpt>
      <trkpt lat="44.60426" lon="2.49091">
        <ele>475.51</ele>
        <time>2020-08-30T12:18:35Z</time>
      </trkpt>
      <trkpt lat="44.60432" lon="2.49074">
        <ele>476.95</ele>
        <time>2020-08-30T12:18:51Z</time>
      </trkpt>
      <trkpt lat="44.6044" lon="2.49057">
        <ele>477.91</ele>
        <time>2020-08-30T12:19:06Z</time>
      </trkpt>
      <trkpt lat="44.60447" lon="2.49041">
        <ele>479.35</ele>
        <time>2020-08-30T12:19:22Z</time>
      </trkpt>
      <trkpt lat="44.60452" lon="2.4902">
        <ele>480.8</ele>
        <time>2020-08-30T12:19:38Z</time>
      </trkpt>
      <trkpt lat="44.60458" lon="2.49002">
        <ele>481.76</ele>
        <time>2020-08-30T12:19:51Z</time>
      </trkpt>
      <trkpt lat="44.60462" lon="2.48987">
        <ele>483.68</ele>
        <time>2020-08-30T12:20:05Z</time>
      </trkpt>
      <trkpt lat="44.60465" lon="2.48973">
        <ele>486.08</ele>
        <time>2020-08-30T12:20:20Z</time>
      </trkpt>
      <trkpt lat="44.60472" lon="2.48959">
        <ele>487.53</ele>
        <time>2020-08-30T12:20:34Z</time>
      </trkpt>
      <trkpt lat="44.60475" lon="2.48949">
        <ele>488.49</ele>
        <time>2020-08-30T12:20:47Z</time>
      </trkpt>
      <trkpt lat="44.60482" lon="2.48933">
        <ele>489.93</ele>
        <time>2020-08-30T12:21:01Z</time>
      </trkpt>
      <trkpt lat="44.60483" lon="2.48928">
        <ele>489.93</ele>
        <time>2020-08-30T12:21:05Z</time>
      </trkpt>
      <trkpt lat="44.60489" lon="2.48908">
        <ele>491.85</ele>
        <time>2020-08-30T12:21:19Z</time>
      </trkpt>
      <trkpt lat="44.60494" lon="2.48896">
        <ele>492.81</ele>
        <time>2020-08-30T12:21:31Z</time>
      </trkpt>
      <trkpt lat="44.605" lon="2.4888">
        <ele>494.26</ele>
        <time>2020-08-30T12:21:45Z</time>
      </trkpt>
      <trkpt lat="44.60506" lon="2.48862">
        <ele>494.74</ele>
        <time>2020-08-30T12:22:02Z</time>
      </trkpt>
      <trkpt lat="44.60511" lon="2.48849">
        <ele>495.22</ele>
        <time>2020-08-30T12:22:19Z</time>
      </trkpt>
      <trkpt lat="44.60514" lon="2.48836">
        <ele>495.22</ele>
        <time>2020-08-30T12:22:36Z</time>
      </trkpt>
      <trkpt lat="44.60515" lon="2.48833">
        <ele>495.22</ele>
        <time>2020-08-30T12:23:09Z</time>
      </trkpt>
      <trkpt lat="44.60516" lon="2.48821">
        <ele>495.22</ele>
        <time>2020-08-30T12:23:24Z</time>
      </trkpt>
      <trkpt lat="44.60517" lon="2.48796">
        <ele>495.22</ele>
        <time>2020-08-30T12:23:47Z</time>
      </trkpt>
      <trkpt lat="44.60517" lon="2.48796">
        <ele>495.22</ele>
        <time>2020-08-30T12:24:18Z</time>
      </trkpt>
      <trkpt lat="44.60519" lon="2.48795">
        <ele>495.22</ele>
        <time>2020-08-30T12:24:47Z</time>
      </trkpt>
      <trkpt lat="44.60517" lon="2.48796">
        <ele>495.22</ele>
        <time>2020-08-30T12:25:22Z</time>
      </trkpt>
      <trkpt lat="44.60518" lon="2.48796">
        <ele>495.7</ele>
        <time>2020-08-30T12:26:04Z</time>
      </trkpt>
      <trkpt lat="44.60518" lon="2.48797">
        <ele>495.7</ele>
        <time>2020-08-30T12:26:39Z</time>
      </trkpt>
      <trkpt lat="44.60518" lon="2.48795">
        <ele>496.18</ele>
        <time>2020-08-30T12:27:20Z</time>
      </trkpt>
      <trkpt lat="44.60519" lon="2.48797">
        <ele>496.18</ele>
        <time>2020-08-30T12:28:04Z</time>
      </trkpt>
      <trkpt lat="44.60518" lon="2.48798">
        <ele>496.18</ele>
        <time>2020-08-30T12:28:41Z</time>
      </trkpt>
      <trkpt lat="44.60518" lon="2.48798">
        <ele>496.66</ele>
        <time>2020-08-30T12:29:22Z</time>
      </trkpt>
      <trkpt lat="44.60517" lon="2.48799">
        <ele>496.66</ele>
        <time>2020-08-30T12:30:03Z</time>
      </trkpt>
      <trkpt lat="44.60517" lon="2.48799">
        <ele>497.14</ele>
        <time>2020-08-30T12:30:48Z</time>
      </trkpt>
      <trkpt lat="44.60518" lon="2.48799">
        <ele>496.18</ele>
        <time>2020-08-30T12:31:28Z</time>
      </trkpt>
      <trkpt lat="44.60519" lon="2.48798">
        <ele>496.18</ele>
        <time>2020-08-30T12:32:11Z</time>
      </trkpt>
      <trkpt lat="44.60519" lon="2.48798">
        <ele>496.66</ele>
        <time>2020-08-30T12:32:49Z</time>
      </trkpt>
      <trkpt lat="44.60518" lon="2.48798">
        <ele>496.18</ele>
        <time>2020-08-30T12:33:32Z</time>
      </trkpt>
      <trkpt lat="44.60518" lon="2.48797">
        <ele>496.18</ele>
        <time>2020-08-30T12:34:08Z</time>
      </trkpt>
      <trkpt lat="44.60518" lon="2.48797">
        <ele>496.18</ele>
        <time>2020-08-30T12:34:43Z</time>
      </trkpt>
      <trkpt lat="44.60516" lon="2.48797">
        <ele>496.66</ele>
        <time>2020-08-30T12:35:05Z</time>
      </trkpt>
      <trkpt lat="44.60517" lon="2.48798">
        <ele>496.66</ele>
        <time>2020-08-30T12:35:30Z</time>
      </trkpt>
      <trkpt lat="44.60516" lon="2.48796">
        <ele>496.66</ele>
        <time>2020-08-30T12:35:51Z</time>
      </trkpt>
      <trkpt lat="44.60515" lon="2.48798">
        <ele>496.18</ele>
        <time>2020-08-30T12:36:17Z</time>
      </trkpt>
      <trkpt lat="44.60517" lon="2.48797">
        <ele>496.66</ele>
        <time>2020-08-30T12:36:43Z</time>
      </trkpt>
      <trkpt lat="44.6052" lon="2.48796">
        <ele>497.62</ele>
        <time>2020-08-30T12:36:59Z</time>
      </trkpt>
      <trkpt lat="44.6052" lon="2.48781">
        <ele>497.62</ele>
        <time>2020-08-30T12:37:14Z</time>
      </trkpt>
      <trkpt lat="44.60523" lon="2.48759">
        <ele>497.62</ele>
        <time>2020-08-30T12:37:32Z</time>
      </trkpt>
      <trkpt lat="44.60526" lon="2.48738">
        <ele>498.1</ele>
        <time>2020-08-30T12:37:50Z</time>
      </trkpt>
      <trkpt lat="44.60526" lon="2.4872">
        <ele>498.58</ele>
        <time>2020-08-30T12:38:04Z</time>
      </trkpt>
      <trkpt lat="44.60521" lon="2.4871">
        <ele>499.54</ele>
        <time>2020-08-30T12:38:12Z</time>
      </trkpt>
      <trkpt lat="44.60514" lon="2.48698">
        <ele>500.5</ele>
        <time>2020-08-30T12:38:27Z</time>
      </trkpt>
      <trkpt lat="44.60506" lon="2.48688">
        <ele>500.5</ele>
        <time>2020-08-30T12:38:42Z</time>
      </trkpt>
      <trkpt lat="44.60503" lon="2.48689">
        <ele>501.46</ele>
        <time>2020-08-30T12:38:56Z</time>
      </trkpt>
      <trkpt lat="44.60503" lon="2.48694">
        <ele>500.5</ele>
        <time>2020-08-30T12:39:12Z</time>
      </trkpt>
      <trkpt lat="44.60501" lon="2.48696">
        <ele>500.5</ele>
        <time>2020-08-30T12:39:31Z</time>
      </trkpt>
      <trkpt lat="44.60501" lon="2.48697">
        <ele>501.46</ele>
        <time>2020-08-30T12:39:51Z</time>
      </trkpt>
      <trkpt lat="44.60501" lon="2.48697">
        <ele>501.46</ele>
        <time>2020-08-30T12:40:18Z</time>
      </trkpt>
      <trkpt lat="44.60503" lon="2.48696">
        <ele>500.5</ele>
        <time>2020-08-30T12:40:39Z</time>
      </trkpt>
      <trkpt lat="44.60504" lon="2.48694">
        <ele>500.02</ele>
        <time>2020-08-30T12:41:05Z</time>
      </trkpt>
      <trkpt lat="44.60505" lon="2.48694">
        <ele>500.02</ele>
        <time>2020-08-30T12:41:35Z</time>
      </trkpt>
      <trkpt lat="44.60504" lon="2.48694">
        <ele>501.46</ele>
        <time>2020-08-30T12:42:03Z</time>
      </trkpt>
      <trkpt lat="44.60505" lon="2.48692">
        <ele>501.46</ele>
        <time>2020-08-30T12:42:24Z</time>
      </trkpt>
      <trkpt lat="44.60506" lon="2.48693">
        <ele>501.46</ele>
        <time>2020-08-30T12:42:46Z</time>
      </trkpt>
      <trkpt lat="44.60506" lon="2.48693">
        <ele>501.46</ele>
        <time>2020-08-30T12:43:11Z</time>
      </trkpt>
    </trkseg>
  </trk>
</gpx>